<?xml version="1.0" encoding="UTF-8" standalone="no" ?>
<gpx xmlns="http://www.topografix.com/GPX/1/1" xmlns:xsi="http://www.w3.org/2001/XMLSchema-instance" xsi:schemaLocation="http://www.topografix.com/GPX/1/1 http://www.topografix.com/GPX/1/1/gpx.xsd" version="1.1" creator="VisuGPX - https://www.visugpx.com">
  <metadata>
    <name>Forrestiere 2013 - 100 KM</name>
    <desc><![CDATA[Grande traversée du Jura a VTT. (course 22 sept 2013)]]></desc>
  </metadata>
  <wpt lat="46.46263" lon="6.02947">
    <ele>1120</ele>
    <name><![CDATA[WPT001]]></name>
    <desc><![CDATA[WPT001]]></desc>
    <cmt><![CDATA[WPT001]]></cmt>
  </wpt>
  <wpt lat="46.27868" lon="5.67803">
    <ele>548</ele>
    <name><![CDATA[WPT002]]></name>
    <desc><![CDATA[WPT002]]></desc>
    <cmt><![CDATA[WPT002]]></cmt>
  </wpt>
  <trk>
    <name><![CDATA[Forrestiere 2013 - 100 KM_1]]></name>
    <trkseg>
      <trkpt lat="46.46104" lon="6.02956">
        <ele>1120</ele>
        <time>2013-09-22T06:01:01Z</time>
      </trkpt>
      <trkpt lat="46.46142" lon="6.02974">
        <ele>1119</ele>
        <time>2013-09-22T06:01:10Z</time>
      </trkpt>
      <trkpt lat="46.46211" lon="6.03065">
        <ele>1117</ele>
        <time>2013-09-22T06:01:27Z</time>
      </trkpt>
      <trkpt lat="46.46225" lon="6.03113">
        <ele>1118</ele>
        <time>2013-09-22T06:01:36Z</time>
      </trkpt>
      <trkpt lat="46.46174" lon="6.03229">
        <ele>1124</ele>
        <time>2013-09-22T06:02:02Z</time>
      </trkpt>
      <trkpt lat="46.46117" lon="6.03194">
        <ele>1128</ele>
        <time>2013-09-22T06:02:35Z</time>
      </trkpt>
      <trkpt lat="46.46065" lon="6.03264">
        <ele>1135</ele>
        <time>2013-09-22T06:02:58Z</time>
      </trkpt>
      <trkpt lat="46.4603" lon="6.03406">
        <ele>1132</ele>
        <time>2013-09-22T06:03:40Z</time>
      </trkpt>
      <trkpt lat="46.46032" lon="6.03466">
        <ele>1131</ele>
        <time>2013-09-22T06:03:57Z</time>
      </trkpt>
      <trkpt lat="46.46008" lon="6.03564">
        <ele>1133</ele>
        <time>2013-09-22T06:04:16Z</time>
      </trkpt>
      <trkpt lat="46.45885" lon="6.0365">
        <ele>1150</ele>
        <time>2013-09-22T06:07:16Z</time>
      </trkpt>
      <trkpt lat="46.45857" lon="6.03566">
        <ele>1154</ele>
        <time>2013-09-22T06:13:05Z</time>
      </trkpt>
      <trkpt lat="46.45908" lon="6.0349">
        <ele>1150</ele>
        <time>2013-09-22T06:13:44Z</time>
      </trkpt>
      <trkpt lat="46.45862" lon="6.03362">
        <ele>1152</ele>
        <time>2013-09-22T06:14:57Z</time>
      </trkpt>
      <trkpt lat="46.45853" lon="6.03216">
        <ele>1148</ele>
        <time>2013-09-22T06:15:49Z</time>
      </trkpt>
      <trkpt lat="46.45862" lon="6.03088">
        <ele>1143</ele>
        <time>2013-09-22T06:16:12Z</time>
      </trkpt>
      <trkpt lat="46.45898" lon="6.03021">
        <ele>1134</ele>
        <time>2013-09-22T06:16:27Z</time>
      </trkpt>
      <trkpt lat="46.45946" lon="6.03018">
        <ele>1133</ele>
        <time>2013-09-22T06:16:36Z</time>
      </trkpt>
      <trkpt lat="46.45991" lon="6.03099">
        <ele>1136</ele>
        <time>2013-09-22T06:16:50Z</time>
      </trkpt>
      <trkpt lat="46.46008" lon="6.03085">
        <ele>1134</ele>
        <time>2013-09-22T06:16:54Z</time>
      </trkpt>
      <trkpt lat="46.46014" lon="6.03037">
        <ele>1129</ele>
        <time>2013-09-22T06:17:00Z</time>
      </trkpt>
      <trkpt lat="46.46041" lon="6.03017">
        <ele>1128</ele>
        <time>2013-09-22T06:17:08Z</time>
      </trkpt>
      <trkpt lat="46.46059" lon="6.02936">
        <ele>1122</ele>
        <time>2013-09-22T06:17:22Z</time>
      </trkpt>
      <trkpt lat="46.46047" lon="6.02903">
        <ele>1123</ele>
        <time>2013-09-22T06:17:26Z</time>
      </trkpt>
      <trkpt lat="46.45964" lon="6.02849">
        <ele>1124</ele>
        <time>2013-09-22T06:17:38Z</time>
      </trkpt>
      <trkpt lat="46.45788" lon="6.02585">
        <ele>1127</ele>
        <time>2013-09-22T06:18:16Z</time>
      </trkpt>
      <trkpt lat="46.45731" lon="6.02567">
        <ele>1129</ele>
        <time>2013-09-22T06:18:28Z</time>
      </trkpt>
      <trkpt lat="46.45557" lon="6.02442">
        <ele>1139</ele>
        <time>2013-09-22T06:19:19Z</time>
      </trkpt>
      <trkpt lat="46.45487" lon="6.02326">
        <ele>1143</ele>
        <time>2013-09-22T06:19:50Z</time>
      </trkpt>
      <trkpt lat="46.45403" lon="6.02275">
        <ele>1154</ele>
        <time>2013-09-22T06:20:25Z</time>
      </trkpt>
      <trkpt lat="46.45389" lon="6.02234">
        <ele>1158</ele>
        <time>2013-09-22T06:20:43Z</time>
      </trkpt>
      <trkpt lat="46.45274" lon="6.02078">
        <ele>1187</ele>
        <time>2013-09-22T06:22:33Z</time>
      </trkpt>
      <trkpt lat="46.45267" lon="6.01999">
        <ele>1199</ele>
        <time>2013-09-22T06:23:45Z</time>
      </trkpt>
      <trkpt lat="46.45237" lon="6.01929">
        <ele>1207</ele>
        <time>2013-09-22T06:24:26Z</time>
      </trkpt>
      <trkpt lat="46.45192" lon="6.01878">
        <ele>1215</ele>
        <time>2013-09-22T06:25:23Z</time>
      </trkpt>
      <trkpt lat="46.45163" lon="6.01781">
        <ele>1227</ele>
        <time>2013-09-22T06:26:18Z</time>
      </trkpt>
      <trkpt lat="46.45109" lon="6.01696">
        <ele>1233</ele>
        <time>2013-09-22T06:27:04Z</time>
      </trkpt>
      <trkpt lat="46.44966" lon="6.01624">
        <ele>1247</ele>
        <time>2013-09-22T06:28:08Z</time>
      </trkpt>
      <trkpt lat="46.44906" lon="6.01573">
        <ele>1257</ele>
        <time>2013-09-22T06:28:55Z</time>
      </trkpt>
      <trkpt lat="46.44737" lon="6.01313">
        <ele>1274</ele>
        <time>2013-09-22T06:31:15Z</time>
      </trkpt>
      <trkpt lat="46.44705" lon="6.01298">
        <ele>1277</ele>
        <time>2013-09-22T06:31:27Z</time>
      </trkpt>
      <trkpt lat="46.44565" lon="6.01107">
        <ele>1290</ele>
        <time>2013-09-22T06:32:36Z</time>
      </trkpt>
      <trkpt lat="46.44404" lon="6.00995">
        <ele>1295</ele>
        <time>2013-09-22T06:33:21Z</time>
      </trkpt>
      <trkpt lat="46.4421" lon="6.00706">
        <ele>1290</ele>
        <time>2013-09-22T06:33:55Z</time>
      </trkpt>
      <trkpt lat="46.44144" lon="6.0052">
        <ele>1286</ele>
        <time>2013-09-22T06:34:15Z</time>
      </trkpt>
      <trkpt lat="46.44021" lon="6.00323">
        <ele>1288</ele>
        <time>2013-09-22T06:34:40Z</time>
      </trkpt>
      <trkpt lat="46.43638" lon="5.99875">
        <ele>1285</ele>
        <time>2013-09-22T06:35:56Z</time>
      </trkpt>
      <trkpt lat="46.43515" lon="5.99832">
        <ele>1287</ele>
        <time>2013-09-22T06:36:19Z</time>
      </trkpt>
      <trkpt lat="46.4348" lon="5.99865">
        <ele>1296</ele>
        <time>2013-09-22T06:36:37Z</time>
      </trkpt>
      <trkpt lat="46.43424" lon="5.99828">
        <ele>1293</ele>
        <time>2013-09-22T06:37:00Z</time>
      </trkpt>
      <trkpt lat="46.43394" lon="5.99847">
        <ele>1300</ele>
        <time>2013-09-22T06:37:20Z</time>
      </trkpt>
      <trkpt lat="46.43379" lon="5.99883">
        <ele>1304</ele>
        <time>2013-09-22T06:37:44Z</time>
      </trkpt>
      <trkpt lat="46.4335" lon="5.99898">
        <ele>1306</ele>
        <time>2013-09-22T06:37:59Z</time>
      </trkpt>
      <trkpt lat="46.43351" lon="5.99912">
        <ele>1307</ele>
        <time>2013-09-22T06:38:04Z</time>
      </trkpt>
      <trkpt lat="46.43256" lon="5.99873">
        <ele>1306</ele>
        <time>2013-09-22T06:38:52Z</time>
      </trkpt>
      <trkpt lat="46.43204" lon="5.99817">
        <ele>1301</ele>
        <time>2013-09-22T06:39:08Z</time>
      </trkpt>
      <trkpt lat="46.43165" lon="5.9982">
        <ele>1305</ele>
        <time>2013-09-22T06:39:27Z</time>
      </trkpt>
      <trkpt lat="46.43156" lon="5.99859">
        <ele>1309</ele>
        <time>2013-09-22T06:39:49Z</time>
      </trkpt>
      <trkpt lat="46.43126" lon="5.99876">
        <ele>1311</ele>
        <time>2013-09-22T06:40:05Z</time>
      </trkpt>
      <trkpt lat="46.43064" lon="5.99862">
        <ele>1310</ele>
        <time>2013-09-22T06:40:25Z</time>
      </trkpt>
      <trkpt lat="46.43019" lon="5.99908">
        <ele>1310</ele>
        <time>2013-09-22T06:40:36Z</time>
      </trkpt>
      <trkpt lat="46.42979" lon="5.99921">
        <ele>1313</ele>
        <time>2013-09-22T06:40:58Z</time>
      </trkpt>
      <trkpt lat="46.42917" lon="6.00025">
        <ele>1318</ele>
        <time>2013-09-22T06:42:23Z</time>
      </trkpt>
      <trkpt lat="46.42849" lon="6.00056">
        <ele>1314</ele>
        <time>2013-09-22T06:42:56Z</time>
      </trkpt>
      <trkpt lat="46.42771" lon="6.00179">
        <ele>1305</ele>
        <time>2013-09-22T06:43:26Z</time>
      </trkpt>
      <trkpt lat="46.42759" lon="6.00178">
        <ele>1303</ele>
        <time>2013-09-22T06:43:30Z</time>
      </trkpt>
      <trkpt lat="46.42728" lon="6.00104">
        <ele>1292</ele>
        <time>2013-09-22T06:43:44Z</time>
      </trkpt>
      <trkpt lat="46.42677" lon="6.00183">
        <ele>1289</ele>
        <time>2013-09-22T06:43:56Z</time>
      </trkpt>
      <trkpt lat="46.42667" lon="6.00355">
        <ele>1288</ele>
        <time>2013-09-22T06:44:39Z</time>
      </trkpt>
      <trkpt lat="46.42638" lon="6.00414">
        <ele>1282</ele>
        <time>2013-09-22T06:44:48Z</time>
      </trkpt>
      <trkpt lat="46.42639" lon="6.005">
        <ele>1283</ele>
        <time>2013-09-22T06:45:08Z</time>
      </trkpt>
      <trkpt lat="46.42544" lon="6.00739">
        <ele>1268</ele>
        <time>2013-09-22T06:45:50Z</time>
      </trkpt>
      <trkpt lat="46.42363" lon="6.00575">
        <ele>1246</ele>
        <time>2013-09-22T06:46:12Z</time>
      </trkpt>
      <trkpt lat="46.42289" lon="6.0048">
        <ele>1241</ele>
        <time>2013-09-22T06:46:21Z</time>
      </trkpt>
      <trkpt lat="46.42255" lon="6.00519">
        <ele>1230</ele>
        <time>2013-09-22T06:46:32Z</time>
      </trkpt>
      <trkpt lat="46.42223" lon="6.00412">
        <ele>1236</ele>
        <time>2013-09-22T06:46:46Z</time>
      </trkpt>
      <trkpt lat="46.42049" lon="6.00217">
        <ele>1226</ele>
        <time>2013-09-22T06:47:37Z</time>
      </trkpt>
      <trkpt lat="46.41968" lon="6.00032">
        <ele>1230</ele>
        <time>2013-09-22T06:48:58Z</time>
      </trkpt>
      <trkpt lat="46.41883" lon="5.99908">
        <ele>1233</ele>
        <time>2013-09-22T06:49:46Z</time>
      </trkpt>
      <trkpt lat="46.4184" lon="5.99754">
        <ele>1224</ele>
        <time>2013-09-22T06:50:07Z</time>
      </trkpt>
      <trkpt lat="46.41644" lon="5.99532">
        <ele>1215</ele>
        <time>2013-09-22T06:51:04Z</time>
      </trkpt>
      <trkpt lat="46.41594" lon="5.99549">
        <ele>1215</ele>
        <time>2013-09-22T06:51:26Z</time>
      </trkpt>
      <trkpt lat="46.41456" lon="5.99537">
        <ele>1204</ele>
        <time>2013-09-22T06:52:05Z</time>
      </trkpt>
      <trkpt lat="46.41401" lon="5.99481">
        <ele>1199</ele>
        <time>2013-09-22T06:52:19Z</time>
      </trkpt>
      <trkpt lat="46.41373" lon="5.99412">
        <ele>1195</ele>
        <time>2013-09-22T06:52:32Z</time>
      </trkpt>
      <trkpt lat="46.41333" lon="5.99396">
        <ele>1196</ele>
        <time>2013-09-22T06:52:44Z</time>
      </trkpt>
      <trkpt lat="46.41279" lon="5.99321">
        <ele>1196</ele>
        <time>2013-09-22T06:53:12Z</time>
      </trkpt>
      <trkpt lat="46.41279" lon="5.99229">
        <ele>1191</ele>
        <time>2013-09-22T06:53:30Z</time>
      </trkpt>
      <trkpt lat="46.41256" lon="5.99174">
        <ele>1190</ele>
        <time>2013-09-22T06:53:41Z</time>
      </trkpt>
      <trkpt lat="46.41256" lon="5.99124">
        <ele>1187</ele>
        <time>2013-09-22T06:53:50Z</time>
      </trkpt>
      <trkpt lat="46.41228" lon="5.9912">
        <ele>1188</ele>
        <time>2013-09-22T06:53:59Z</time>
      </trkpt>
      <trkpt lat="46.41238" lon="5.99163">
        <ele>1190</ele>
        <time>2013-09-22T06:54:14Z</time>
      </trkpt>
      <trkpt lat="46.41214" lon="5.99187">
        <ele>1190</ele>
        <time>2013-09-22T06:54:28Z</time>
      </trkpt>
      <trkpt lat="46.41233" lon="5.99235">
        <ele>1192</ele>
        <time>2013-09-22T06:54:53Z</time>
      </trkpt>
      <trkpt lat="46.41214" lon="5.99239">
        <ele>1191</ele>
        <time>2013-09-22T06:54:57Z</time>
      </trkpt>
      <trkpt lat="46.41189" lon="5.9921">
        <ele>1189</ele>
        <time>2013-09-22T06:55:05Z</time>
      </trkpt>
      <trkpt lat="46.41124" lon="5.98992">
        <ele>1186</ele>
        <time>2013-09-22T06:55:32Z</time>
      </trkpt>
      <trkpt lat="46.41001" lon="5.98873">
        <ele>1192</ele>
        <time>2013-09-22T06:56:43Z</time>
      </trkpt>
      <trkpt lat="46.40984" lon="5.98822">
        <ele>1203</ele>
        <time>2013-09-22T06:57:04Z</time>
      </trkpt>
      <trkpt lat="46.40815" lon="5.9866">
        <ele>1225</ele>
        <time>2013-09-22T06:58:43Z</time>
      </trkpt>
      <trkpt lat="46.40655" lon="5.9837">
        <ele>1232</ele>
        <time>2013-09-22T06:59:57Z</time>
      </trkpt>
      <trkpt lat="46.40574" lon="5.98277">
        <ele>1227</ele>
        <time>2013-09-22T07:00:14Z</time>
      </trkpt>
      <trkpt lat="46.40573" lon="5.98199">
        <ele>1228</ele>
        <time>2013-09-22T07:00:26Z</time>
      </trkpt>
      <trkpt lat="46.40551" lon="5.98145">
        <ele>1227</ele>
        <time>2013-09-22T07:00:34Z</time>
      </trkpt>
      <trkpt lat="46.40464" lon="5.98048">
        <ele>1223</ele>
        <time>2013-09-22T07:00:53Z</time>
      </trkpt>
      <trkpt lat="46.40391" lon="5.97901">
        <ele>1230</ele>
        <time>2013-09-22T07:01:22Z</time>
      </trkpt>
      <trkpt lat="46.40273" lon="5.97829">
        <ele>1223</ele>
        <time>2013-09-22T07:01:37Z</time>
      </trkpt>
      <trkpt lat="46.40214" lon="5.97828">
        <ele>1217</ele>
        <time>2013-09-22T07:01:51Z</time>
      </trkpt>
      <trkpt lat="46.40035" lon="5.97679">
        <ele>1210</ele>
        <time>2013-09-22T07:02:41Z</time>
      </trkpt>
      <trkpt lat="46.39984" lon="5.97585">
        <ele>1210</ele>
        <time>2013-09-22T07:03:15Z</time>
      </trkpt>
      <trkpt lat="46.39822" lon="5.97413">
        <ele>1204</ele>
        <time>2013-09-22T07:04:26Z</time>
      </trkpt>
      <trkpt lat="46.39774" lon="5.97321">
        <ele>1204</ele>
        <time>2013-09-22T07:04:45Z</time>
      </trkpt>
      <trkpt lat="46.39729" lon="5.97276">
        <ele>1199</ele>
        <time>2013-09-22T07:04:56Z</time>
      </trkpt>
      <trkpt lat="46.3968" lon="5.97149">
        <ele>1206</ele>
        <time>2013-09-22T07:05:43Z</time>
      </trkpt>
      <trkpt lat="46.39555" lon="5.97001">
        <ele>1200</ele>
        <time>2013-09-22T07:06:37Z</time>
      </trkpt>
      <trkpt lat="46.39509" lon="5.96874">
        <ele>1187</ele>
        <time>2013-09-22T07:07:10Z</time>
      </trkpt>
      <trkpt lat="46.39539" lon="5.96815">
        <ele>1175</ele>
        <time>2013-09-22T07:07:42Z</time>
      </trkpt>
      <trkpt lat="46.39533" lon="5.96799">
        <ele>1173</ele>
        <time>2013-09-22T07:07:47Z</time>
      </trkpt>
      <trkpt lat="46.39492" lon="5.96795">
        <ele>1163</ele>
        <time>2013-09-22T07:08:04Z</time>
      </trkpt>
      <trkpt lat="46.39479" lon="5.96759">
        <ele>1159</ele>
        <time>2013-09-22T07:08:13Z</time>
      </trkpt>
      <trkpt lat="46.3945" lon="5.96795">
        <ele>1160</ele>
        <time>2013-09-22T07:08:26Z</time>
      </trkpt>
      <trkpt lat="46.39376" lon="5.9679">
        <ele>1151</ele>
        <time>2013-09-22T07:08:45Z</time>
      </trkpt>
      <trkpt lat="46.39363" lon="5.96812">
        <ele>1152</ele>
        <time>2013-09-22T07:08:53Z</time>
      </trkpt>
      <trkpt lat="46.39109" lon="5.96858">
        <ele>1158</ele>
        <time>2013-09-22T07:09:55Z</time>
      </trkpt>
      <trkpt lat="46.39017" lon="5.96829">
        <ele>1173</ele>
        <time>2013-09-22T07:10:31Z</time>
      </trkpt>
      <trkpt lat="46.39002" lon="5.96844">
        <ele>1174</ele>
        <time>2013-09-22T07:10:44Z</time>
      </trkpt>
      <trkpt lat="46.39009" lon="5.9687">
        <ele>1173</ele>
        <time>2013-09-22T07:10:57Z</time>
      </trkpt>
      <trkpt lat="46.38961" lon="5.96894">
        <ele>1183</ele>
        <time>2013-09-22T07:11:25Z</time>
      </trkpt>
      <trkpt lat="46.3879" lon="5.96834">
        <ele>1160</ele>
        <time>2013-09-22T07:12:52Z</time>
      </trkpt>
      <trkpt lat="46.38773" lon="5.9685">
        <ele>1158</ele>
        <time>2013-09-22T07:13:02Z</time>
      </trkpt>
      <trkpt lat="46.3881" lon="5.96913">
        <ele>1159</ele>
        <time>2013-09-22T07:13:16Z</time>
      </trkpt>
      <trkpt lat="46.38783" lon="5.96925">
        <ele>1159</ele>
        <time>2013-09-22T07:13:28Z</time>
      </trkpt>
      <trkpt lat="46.3877" lon="5.96961">
        <ele>1161</ele>
        <time>2013-09-22T07:14:22Z</time>
      </trkpt>
      <trkpt lat="46.38789" lon="5.96993">
        <ele>1162</ele>
        <time>2013-09-22T07:14:56Z</time>
      </trkpt>
      <trkpt lat="46.38787" lon="5.97076">
        <ele>1168</ele>
        <time>2013-09-22T07:15:32Z</time>
      </trkpt>
      <trkpt lat="46.38758" lon="5.97103">
        <ele>1174</ele>
        <time>2013-09-22T07:15:43Z</time>
      </trkpt>
      <trkpt lat="46.38755" lon="5.97161">
        <ele>1181</ele>
        <time>2013-09-22T07:15:55Z</time>
      </trkpt>
      <trkpt lat="46.38951" lon="5.97535">
        <ele>1209</ele>
        <time>2013-09-22T07:18:20Z</time>
      </trkpt>
      <trkpt lat="46.38992" lon="5.97719">
        <ele>1217</ele>
        <time>2013-09-22T07:18:57Z</time>
      </trkpt>
      <trkpt lat="46.39111" lon="5.9793">
        <ele>1224</ele>
        <time>2013-09-22T07:20:06Z</time>
      </trkpt>
      <trkpt lat="46.39124" lon="5.98002">
        <ele>1232</ele>
        <time>2013-09-22T07:20:27Z</time>
      </trkpt>
      <trkpt lat="46.39292" lon="5.98256">
        <ele>1225</ele>
        <time>2013-09-22T07:21:25Z</time>
      </trkpt>
      <trkpt lat="46.3941" lon="5.98392">
        <ele>1215</ele>
        <time>2013-09-22T07:22:00Z</time>
      </trkpt>
      <trkpt lat="46.3959" lon="5.9867">
        <ele>1224</ele>
        <time>2013-09-22T07:23:24Z</time>
      </trkpt>
      <trkpt lat="46.39868" lon="5.99175">
        <ele>1237</ele>
        <time>2013-09-22T07:26:42Z</time>
      </trkpt>
      <trkpt lat="46.39876" lon="5.99222">
        <ele>1238</ele>
        <time>2013-09-22T07:26:51Z</time>
      </trkpt>
      <trkpt lat="46.3985" lon="5.99302">
        <ele>1240</ele>
        <time>2013-09-22T07:27:20Z</time>
      </trkpt>
      <trkpt lat="46.39772" lon="5.99413">
        <ele>1256</ele>
        <time>2013-09-22T07:28:35Z</time>
      </trkpt>
      <trkpt lat="46.39756" lon="5.99502">
        <ele>1268</ele>
        <time>2013-09-22T07:29:32Z</time>
      </trkpt>
      <trkpt lat="46.39736" lon="5.99507">
        <ele>1271</ele>
        <time>2013-09-22T07:29:42Z</time>
      </trkpt>
      <trkpt lat="46.39686" lon="5.99461">
        <ele>1270</ele>
        <time>2013-09-22T07:30:19Z</time>
      </trkpt>
      <trkpt lat="46.39651" lon="5.99556">
        <ele>1284</ele>
        <time>2013-09-22T07:31:33Z</time>
      </trkpt>
      <trkpt lat="46.39569" lon="5.99603">
        <ele>1295</ele>
        <time>2013-09-22T07:32:37Z</time>
      </trkpt>
      <trkpt lat="46.39557" lon="5.99682">
        <ele>1303</ele>
        <time>2013-09-22T07:33:39Z</time>
      </trkpt>
      <trkpt lat="46.3952" lon="5.99684">
        <ele>1307</ele>
        <time>2013-09-22T07:34:14Z</time>
      </trkpt>
      <trkpt lat="46.39493" lon="5.99756">
        <ele>1322</ele>
        <time>2013-09-22T07:35:36Z</time>
      </trkpt>
      <trkpt lat="46.39565" lon="5.9992">
        <ele>1334</ele>
        <time>2013-09-22T07:37:02Z</time>
      </trkpt>
      <trkpt lat="46.39566" lon="5.99979">
        <ele>1336</ele>
        <time>2013-09-22T07:37:20Z</time>
      </trkpt>
      <trkpt lat="46.39518" lon="6.00058">
        <ele>1334</ele>
        <time>2013-09-22T07:37:39Z</time>
      </trkpt>
      <trkpt lat="46.39533" lon="6.00115">
        <ele>1329</ele>
        <time>2013-09-22T07:37:47Z</time>
      </trkpt>
      <trkpt lat="46.39533" lon="6.00182">
        <ele>1321</ele>
        <time>2013-09-22T07:37:55Z</time>
      </trkpt>
      <trkpt lat="46.39548" lon="6.00204">
        <ele>1321</ele>
        <time>2013-09-22T07:37:59Z</time>
      </trkpt>
      <trkpt lat="46.39598" lon="6.00214">
        <ele>1329</ele>
        <time>2013-09-22T07:38:18Z</time>
      </trkpt>
      <trkpt lat="46.39671" lon="6.00279">
        <ele>1335</ele>
        <time>2013-09-22T07:38:49Z</time>
      </trkpt>
      <trkpt lat="46.39722" lon="6.00355">
        <ele>1335</ele>
        <time>2013-09-22T07:39:18Z</time>
      </trkpt>
      <trkpt lat="46.39752" lon="6.00437">
        <ele>1337</ele>
        <time>2013-09-22T07:39:41Z</time>
      </trkpt>
      <trkpt lat="46.39838" lon="6.00512">
        <ele>1342</ele>
        <time>2013-09-22T07:40:29Z</time>
      </trkpt>
      <trkpt lat="46.39854" lon="6.00615">
        <ele>1344</ele>
        <time>2013-09-22T07:40:54Z</time>
      </trkpt>
      <trkpt lat="46.39989" lon="6.00818">
        <ele>1340</ele>
        <time>2013-09-22T07:41:40Z</time>
      </trkpt>
      <trkpt lat="46.4002" lon="6.00829">
        <ele>1347</ele>
        <time>2013-09-22T07:41:49Z</time>
      </trkpt>
      <trkpt lat="46.40093" lon="6.00922">
        <ele>1347</ele>
        <time>2013-09-22T07:42:18Z</time>
      </trkpt>
      <trkpt lat="46.40146" lon="6.00937">
        <ele>1352</ele>
        <time>2013-09-22T07:42:36Z</time>
      </trkpt>
      <trkpt lat="46.40214" lon="6.01025">
        <ele>1355</ele>
        <time>2013-09-22T07:43:09Z</time>
      </trkpt>
      <trkpt lat="46.4028" lon="6.01066">
        <ele>1365</ele>
        <time>2013-09-22T07:43:31Z</time>
      </trkpt>
      <trkpt lat="46.40337" lon="6.01228">
        <ele>1368</ele>
        <time>2013-09-22T07:43:55Z</time>
      </trkpt>
      <trkpt lat="46.40338" lon="6.01383">
        <ele>1364</ele>
        <time>2013-09-22T07:44:13Z</time>
      </trkpt>
      <trkpt lat="46.40464" lon="6.01694">
        <ele>1370</ele>
        <time>2013-09-22T07:45:00Z</time>
      </trkpt>
      <trkpt lat="46.40483" lon="6.0184">
        <ele>1366</ele>
        <time>2013-09-22T07:45:17Z</time>
      </trkpt>
      <trkpt lat="46.40441" lon="6.01982">
        <ele>1357</ele>
        <time>2013-09-22T07:45:31Z</time>
      </trkpt>
      <trkpt lat="46.40442" lon="6.02116">
        <ele>1353</ele>
        <time>2013-09-22T07:45:43Z</time>
      </trkpt>
      <trkpt lat="46.4046" lon="6.02183">
        <ele>1351</ele>
        <time>2013-09-22T07:45:51Z</time>
      </trkpt>
      <trkpt lat="46.4049" lon="6.02215">
        <ele>1352</ele>
        <time>2013-09-22T07:46:00Z</time>
      </trkpt>
      <trkpt lat="46.40449" lon="6.02373">
        <ele>1346</ele>
        <time>2013-09-22T07:46:19Z</time>
      </trkpt>
      <trkpt lat="46.4038" lon="6.02408">
        <ele>1338</ele>
        <time>2013-09-22T07:46:27Z</time>
      </trkpt>
      <trkpt lat="46.40342" lon="6.02388">
        <ele>1337</ele>
        <time>2013-09-22T07:46:31Z</time>
      </trkpt>
      <trkpt lat="46.40296" lon="6.02321">
        <ele>1331</ele>
        <time>2013-09-22T07:46:38Z</time>
      </trkpt>
      <trkpt lat="46.40037" lon="6.02189">
        <ele>1311</ele>
        <time>2013-09-22T07:47:04Z</time>
      </trkpt>
      <trkpt lat="46.39797" lon="6.01802">
        <ele>1292</ele>
        <time>2013-09-22T07:47:52Z</time>
      </trkpt>
      <trkpt lat="46.3979" lon="6.01759">
        <ele>1291</ele>
        <time>2013-09-22T07:47:56Z</time>
      </trkpt>
      <trkpt lat="46.39703" lon="6.01617">
        <ele>1291</ele>
        <time>2013-09-22T07:48:16Z</time>
      </trkpt>
      <trkpt lat="46.39577" lon="6.01458">
        <ele>1283</ele>
        <time>2013-09-22T07:48:44Z</time>
      </trkpt>
      <trkpt lat="46.3954" lon="6.01331">
        <ele>1272</ele>
        <time>2013-09-22T07:48:57Z</time>
      </trkpt>
      <trkpt lat="46.39457" lon="6.01229">
        <ele>1269</ele>
        <time>2013-09-22T07:49:17Z</time>
      </trkpt>
      <trkpt lat="46.39457" lon="6.01018">
        <ele>1259</ele>
        <time>2013-09-22T07:49:39Z</time>
      </trkpt>
      <trkpt lat="46.39348" lon="6.00802">
        <ele>1257</ele>
        <time>2013-09-22T07:50:21Z</time>
      </trkpt>
      <trkpt lat="46.39286" lon="6.00721">
        <ele>1261</ele>
        <time>2013-09-22T07:50:41Z</time>
      </trkpt>
      <trkpt lat="46.3925" lon="6.00697">
        <ele>1263</ele>
        <time>2013-09-22T07:50:52Z</time>
      </trkpt>
      <trkpt lat="46.39089" lon="6.00735">
        <ele>1266</ele>
        <time>2013-09-22T07:51:45Z</time>
      </trkpt>
      <trkpt lat="46.39069" lon="6.0068">
        <ele>1271</ele>
        <time>2013-09-22T07:52:02Z</time>
      </trkpt>
      <trkpt lat="46.39048" lon="6.00694">
        <ele>1269</ele>
        <time>2013-09-22T07:52:08Z</time>
      </trkpt>
      <trkpt lat="46.38928" lon="6.00671">
        <ele>1274</ele>
        <time>2013-09-22T07:52:45Z</time>
      </trkpt>
      <trkpt lat="46.38836" lon="6.00588">
        <ele>1275</ele>
        <time>2013-09-22T07:53:13Z</time>
      </trkpt>
      <trkpt lat="46.38774" lon="6.00584">
        <ele>1273</ele>
        <time>2013-09-22T07:53:31Z</time>
      </trkpt>
      <trkpt lat="46.38702" lon="6.00518">
        <ele>1268</ele>
        <time>2013-09-22T07:53:45Z</time>
      </trkpt>
      <trkpt lat="46.38646" lon="6.00405">
        <ele>1270</ele>
        <time>2013-09-22T07:54:01Z</time>
      </trkpt>
      <trkpt lat="46.38575" lon="6.00343">
        <ele>1270</ele>
        <time>2013-09-22T07:54:31Z</time>
      </trkpt>
      <trkpt lat="46.38535" lon="6.00279">
        <ele>1273</ele>
        <time>2013-09-22T07:55:01Z</time>
      </trkpt>
      <trkpt lat="46.38486" lon="6.00127">
        <ele>1275</ele>
        <time>2013-09-22T07:55:36Z</time>
      </trkpt>
      <trkpt lat="46.3846" lon="6.00096">
        <ele>1275</ele>
        <time>2013-09-22T07:55:46Z</time>
      </trkpt>
      <trkpt lat="46.38349" lon="6.00071">
        <ele>1275</ele>
        <time>2013-09-22T07:56:07Z</time>
      </trkpt>
      <trkpt lat="46.38261" lon="6.00019">
        <ele>1275</ele>
        <time>2013-09-22T07:56:28Z</time>
      </trkpt>
      <trkpt lat="46.38207" lon="6.00014">
        <ele>1276</ele>
        <time>2013-09-22T07:56:36Z</time>
      </trkpt>
      <trkpt lat="46.37804" lon="5.9971">
        <ele>1252</ele>
        <time>2013-09-22T07:57:58Z</time>
      </trkpt>
      <trkpt lat="46.37777" lon="5.99714">
        <ele>1252</ele>
        <time>2013-09-22T07:58:04Z</time>
      </trkpt>
      <trkpt lat="46.3773" lon="5.99628">
        <ele>1241</ele>
        <time>2013-09-22T07:58:20Z</time>
      </trkpt>
      <trkpt lat="46.37659" lon="5.99597">
        <ele>1240</ele>
        <time>2013-09-22T07:58:35Z</time>
      </trkpt>
      <trkpt lat="46.37671" lon="5.99479">
        <ele>1231</ele>
        <time>2013-09-22T07:58:55Z</time>
      </trkpt>
      <trkpt lat="46.37719" lon="5.99383">
        <ele>1231</ele>
        <time>2013-09-22T07:59:11Z</time>
      </trkpt>
      <trkpt lat="46.37816" lon="5.99299">
        <ele>1237</ele>
        <time>2013-09-22T07:59:31Z</time>
      </trkpt>
      <trkpt lat="46.37871" lon="5.99181">
        <ele>1238</ele>
        <time>2013-09-22T07:59:52Z</time>
      </trkpt>
      <trkpt lat="46.3792" lon="5.99118">
        <ele>1242</ele>
        <time>2013-09-22T08:00:14Z</time>
      </trkpt>
      <trkpt lat="46.37937" lon="5.99067">
        <ele>1246</ele>
        <time>2013-09-22T08:00:31Z</time>
      </trkpt>
      <trkpt lat="46.37896" lon="5.98933">
        <ele>1248</ele>
        <time>2013-09-22T08:01:00Z</time>
      </trkpt>
      <trkpt lat="46.37928" lon="5.98816">
        <ele>1242</ele>
        <time>2013-09-22T08:01:16Z</time>
      </trkpt>
      <trkpt lat="46.37919" lon="5.98799">
        <ele>1242</ele>
        <time>2013-09-22T08:01:19Z</time>
      </trkpt>
      <trkpt lat="46.3787" lon="5.98789">
        <ele>1238</ele>
        <time>2013-09-22T08:01:27Z</time>
      </trkpt>
      <trkpt lat="46.37749" lon="5.98698">
        <ele>1215</ele>
        <time>2013-09-22T08:01:50Z</time>
      </trkpt>
      <trkpt lat="46.3771" lon="5.98566">
        <ele>1208</ele>
        <time>2013-09-22T08:02:03Z</time>
      </trkpt>
      <trkpt lat="46.3772" lon="5.98478">
        <ele>1207</ele>
        <time>2013-09-22T08:02:11Z</time>
      </trkpt>
      <trkpt lat="46.37704" lon="5.98156">
        <ele>1210</ele>
        <time>2013-09-22T08:02:47Z</time>
      </trkpt>
      <trkpt lat="46.37571" lon="5.97898">
        <ele>1192</ele>
        <time>2013-09-22T08:03:15Z</time>
      </trkpt>
      <trkpt lat="46.37444" lon="5.97727">
        <ele>1178</ele>
        <time>2013-09-22T08:03:33Z</time>
      </trkpt>
      <trkpt lat="46.37441" lon="5.9765">
        <ele>1172</ele>
        <time>2013-09-22T08:03:54Z</time>
      </trkpt>
      <trkpt lat="46.37445" lon="5.97663">
        <ele>1172</ele>
        <time>2013-09-22T08:06:11Z</time>
      </trkpt>
      <trkpt lat="46.37426" lon="5.97645">
        <ele>1173</ele>
        <time>2013-09-22T08:08:49Z</time>
      </trkpt>
      <trkpt lat="46.37356" lon="5.9779">
        <ele>1192</ele>
        <time>2013-09-22T08:09:45Z</time>
      </trkpt>
      <trkpt lat="46.3731" lon="5.97818">
        <ele>1192</ele>
        <time>2013-09-22T08:10:11Z</time>
      </trkpt>
      <trkpt lat="46.37271" lon="5.97791">
        <ele>1191</ele>
        <time>2013-09-22T08:10:26Z</time>
      </trkpt>
      <trkpt lat="46.37245" lon="5.97815">
        <ele>1196</ele>
        <time>2013-09-22T08:10:37Z</time>
      </trkpt>
      <trkpt lat="46.37226" lon="5.97871">
        <ele>1203</ele>
        <time>2013-09-22T08:10:48Z</time>
      </trkpt>
      <trkpt lat="46.37221" lon="5.97984">
        <ele>1207</ele>
        <time>2013-09-22T08:11:11Z</time>
      </trkpt>
      <trkpt lat="46.37233" lon="5.98005">
        <ele>1206</ele>
        <time>2013-09-22T08:11:39Z</time>
      </trkpt>
      <trkpt lat="46.37176" lon="5.97993">
        <ele>1213</ele>
        <time>2013-09-22T08:12:40Z</time>
      </trkpt>
      <trkpt lat="46.37076" lon="5.97865">
        <ele>1207</ele>
        <time>2013-09-22T08:13:41Z</time>
      </trkpt>
      <trkpt lat="46.37044" lon="5.97867">
        <ele>1206</ele>
        <time>2013-09-22T08:13:53Z</time>
      </trkpt>
      <trkpt lat="46.37001" lon="5.97806">
        <ele>1204</ele>
        <time>2013-09-22T08:14:28Z</time>
      </trkpt>
      <trkpt lat="46.36882" lon="5.97845">
        <ele>1216</ele>
        <time>2013-09-22T08:15:31Z</time>
      </trkpt>
      <trkpt lat="46.3686" lon="5.97892">
        <ele>1218</ele>
        <time>2013-09-22T08:15:47Z</time>
      </trkpt>
      <trkpt lat="46.36739" lon="5.97994">
        <ele>1217</ele>
        <time>2013-09-22T08:16:49Z</time>
      </trkpt>
      <trkpt lat="46.36736" lon="5.97965">
        <ele>1215</ele>
        <time>2013-09-22T08:16:59Z</time>
      </trkpt>
      <trkpt lat="46.36774" lon="5.97841">
        <ele>1217</ele>
        <time>2013-09-22T08:17:27Z</time>
      </trkpt>
      <trkpt lat="46.36689" lon="5.97784">
        <ele>1206</ele>
        <time>2013-09-22T08:19:06Z</time>
      </trkpt>
      <trkpt lat="46.36661" lon="5.97614">
        <ele>1199</ele>
        <time>2013-09-22T08:19:39Z</time>
      </trkpt>
      <trkpt lat="46.36634" lon="5.9772">
        <ele>1198</ele>
        <time>2013-09-22T08:20:04Z</time>
      </trkpt>
      <trkpt lat="46.36582" lon="5.97839">
        <ele>1181</ele>
        <time>2013-09-22T08:20:22Z</time>
      </trkpt>
      <trkpt lat="46.36471" lon="5.97781">
        <ele>1167</ele>
        <time>2013-09-22T08:20:40Z</time>
      </trkpt>
      <trkpt lat="46.36279" lon="5.97597">
        <ele>1164</ele>
        <time>2013-09-22T08:21:13Z</time>
      </trkpt>
      <trkpt lat="46.36239" lon="5.97494">
        <ele>1181</ele>
        <time>2013-09-22T08:21:29Z</time>
      </trkpt>
      <trkpt lat="46.36173" lon="5.97443">
        <ele>1182</ele>
        <time>2013-09-22T08:21:41Z</time>
      </trkpt>
      <trkpt lat="46.36109" lon="5.97346">
        <ele>1184</ele>
        <time>2013-09-22T08:22:02Z</time>
      </trkpt>
      <trkpt lat="46.3598" lon="5.97253">
        <ele>1188</ele>
        <time>2013-09-22T08:22:39Z</time>
      </trkpt>
      <trkpt lat="46.35951" lon="5.9721">
        <ele>1197</ele>
        <time>2013-09-22T08:22:55Z</time>
      </trkpt>
      <trkpt lat="46.35886" lon="5.97163">
        <ele>1195</ele>
        <time>2013-09-22T08:23:17Z</time>
      </trkpt>
      <trkpt lat="46.35855" lon="5.971">
        <ele>1196</ele>
        <time>2013-09-22T08:23:35Z</time>
      </trkpt>
      <trkpt lat="46.35784" lon="5.97036">
        <ele>1200</ele>
        <time>2013-09-22T08:24:07Z</time>
      </trkpt>
      <trkpt lat="46.35716" lon="5.9694">
        <ele>1203</ele>
        <time>2013-09-22T08:24:41Z</time>
      </trkpt>
      <trkpt lat="46.35486" lon="5.96796">
        <ele>1196</ele>
        <time>2013-09-22T08:25:11Z</time>
      </trkpt>
      <trkpt lat="46.35384" lon="5.96765">
        <ele>1183</ele>
        <time>2013-09-22T08:25:22Z</time>
      </trkpt>
      <trkpt lat="46.35334" lon="5.967">
        <ele>1191</ele>
        <time>2013-09-22T08:25:38Z</time>
      </trkpt>
      <trkpt lat="46.35315" lon="5.96648">
        <ele>1194</ele>
        <time>2013-09-22T08:25:52Z</time>
      </trkpt>
      <trkpt lat="46.35211" lon="5.96542">
        <ele>1199</ele>
        <time>2013-09-22T08:27:02Z</time>
      </trkpt>
      <trkpt lat="46.35184" lon="5.96483">
        <ele>1209</ele>
        <time>2013-09-22T08:27:54Z</time>
      </trkpt>
      <trkpt lat="46.35187" lon="5.96427">
        <ele>1214</ele>
        <time>2013-09-22T08:28:25Z</time>
      </trkpt>
      <trkpt lat="46.35147" lon="5.96323">
        <ele>1229</ele>
        <time>2013-09-22T08:29:12Z</time>
      </trkpt>
      <trkpt lat="46.35066" lon="5.96261">
        <ele>1224</ele>
        <time>2013-09-22T08:29:47Z</time>
      </trkpt>
      <trkpt lat="46.3502" lon="5.96192">
        <ele>1233</ele>
        <time>2013-09-22T08:30:07Z</time>
      </trkpt>
      <trkpt lat="46.34969" lon="5.96149">
        <ele>1238</ele>
        <time>2013-09-22T08:30:45Z</time>
      </trkpt>
      <trkpt lat="46.34951" lon="5.96074">
        <ele>1248</ele>
        <time>2013-09-22T08:31:41Z</time>
      </trkpt>
      <trkpt lat="46.34929" lon="5.96046">
        <ele>1248</ele>
        <time>2013-09-22T08:32:03Z</time>
      </trkpt>
      <trkpt lat="46.34908" lon="5.95965">
        <ele>1246</ele>
        <time>2013-09-22T08:32:39Z</time>
      </trkpt>
      <trkpt lat="46.34907" lon="5.95837">
        <ele>1254</ele>
        <time>2013-09-22T08:33:21Z</time>
      </trkpt>
      <trkpt lat="46.34948" lon="5.95771">
        <ele>1268</ele>
        <time>2013-09-22T08:33:49Z</time>
      </trkpt>
      <trkpt lat="46.34938" lon="5.9572">
        <ele>1269</ele>
        <time>2013-09-22T08:34:24Z</time>
      </trkpt>
      <trkpt lat="46.34895" lon="5.9566">
        <ele>1266</ele>
        <time>2013-09-22T08:34:50Z</time>
      </trkpt>
      <trkpt lat="46.34891" lon="5.95571">
        <ele>1269</ele>
        <time>2013-09-22T08:35:22Z</time>
      </trkpt>
      <trkpt lat="46.34789" lon="5.95544">
        <ele>1266</ele>
        <time>2013-09-22T08:36:03Z</time>
      </trkpt>
      <trkpt lat="46.34779" lon="5.95516">
        <ele>1266</ele>
        <time>2013-09-22T08:36:07Z</time>
      </trkpt>
      <trkpt lat="46.34793" lon="5.95423">
        <ele>1270</ele>
        <time>2013-09-22T08:36:23Z</time>
      </trkpt>
      <trkpt lat="46.34827" lon="5.95355">
        <ele>1272</ele>
        <time>2013-09-22T08:36:41Z</time>
      </trkpt>
      <trkpt lat="46.3482" lon="5.95296">
        <ele>1270</ele>
        <time>2013-09-22T08:36:54Z</time>
      </trkpt>
      <trkpt lat="46.34867" lon="5.95208">
        <ele>1264</ele>
        <time>2013-09-22T08:37:14Z</time>
      </trkpt>
      <trkpt lat="46.34891" lon="5.95053">
        <ele>1263</ele>
        <time>2013-09-22T08:37:42Z</time>
      </trkpt>
      <trkpt lat="46.34829" lon="5.94953">
        <ele>1260</ele>
        <time>2013-09-22T08:38:00Z</time>
      </trkpt>
      <trkpt lat="46.34841" lon="5.94895">
        <ele>1260</ele>
        <time>2013-09-22T08:38:13Z</time>
      </trkpt>
      <trkpt lat="46.34873" lon="5.94836">
        <ele>1261</ele>
        <time>2013-09-22T08:38:29Z</time>
      </trkpt>
      <trkpt lat="46.34923" lon="5.94796">
        <ele>1265</ele>
        <time>2013-09-22T08:39:13Z</time>
      </trkpt>
      <trkpt lat="46.34908" lon="5.94731">
        <ele>1264</ele>
        <time>2013-09-22T08:39:49Z</time>
      </trkpt>
      <trkpt lat="46.34924" lon="5.94663">
        <ele>1266</ele>
        <time>2013-09-22T08:40:10Z</time>
      </trkpt>
      <trkpt lat="46.35028" lon="5.94555">
        <ele>1269</ele>
        <time>2013-09-22T08:40:53Z</time>
      </trkpt>
      <trkpt lat="46.34865" lon="5.94255">
        <ele>1258</ele>
        <time>2013-09-22T08:41:33Z</time>
      </trkpt>
      <trkpt lat="46.34526" lon="5.93945">
        <ele>1243</ele>
        <time>2013-09-22T08:42:13Z</time>
      </trkpt>
      <trkpt lat="46.34379" lon="5.93757">
        <ele>1242</ele>
        <time>2013-09-22T08:42:33Z</time>
      </trkpt>
      <trkpt lat="46.3436" lon="5.93764">
        <ele>1241</ele>
        <time>2013-09-22T08:42:37Z</time>
      </trkpt>
      <trkpt lat="46.34345" lon="5.9387">
        <ele>1237</ele>
        <time>2013-09-22T08:42:47Z</time>
      </trkpt>
      <trkpt lat="46.34351" lon="5.93942">
        <ele>1234</ele>
        <time>2013-09-22T08:42:53Z</time>
      </trkpt>
      <trkpt lat="46.34281" lon="5.94131">
        <ele>1233</ele>
        <time>2013-09-22T08:43:11Z</time>
      </trkpt>
      <trkpt lat="46.34209" lon="5.94209">
        <ele>1231</ele>
        <time>2013-09-22T08:43:23Z</time>
      </trkpt>
      <trkpt lat="46.34152" lon="5.94223">
        <ele>1231</ele>
        <time>2013-09-22T08:43:31Z</time>
      </trkpt>
      <trkpt lat="46.34121" lon="5.9426">
        <ele>1230</ele>
        <time>2013-09-22T08:43:37Z</time>
      </trkpt>
      <trkpt lat="46.34091" lon="5.94345">
        <ele>1231</ele>
        <time>2013-09-22T08:43:47Z</time>
      </trkpt>
      <trkpt lat="46.34001" lon="5.94495">
        <ele>1238</ele>
        <time>2013-09-22T08:44:07Z</time>
      </trkpt>
      <trkpt lat="46.33963" lon="5.94513">
        <ele>1243</ele>
        <time>2013-09-22T08:44:13Z</time>
      </trkpt>
      <trkpt lat="46.33877" lon="5.94506">
        <ele>1247</ele>
        <time>2013-09-22T08:44:29Z</time>
      </trkpt>
      <trkpt lat="46.33862" lon="5.94527">
        <ele>1248</ele>
        <time>2013-09-22T08:44:34Z</time>
      </trkpt>
      <trkpt lat="46.3379" lon="5.94537">
        <ele>1249</ele>
        <time>2013-09-22T08:44:55Z</time>
      </trkpt>
      <trkpt lat="46.33739" lon="5.94506">
        <ele>1246</ele>
        <time>2013-09-22T08:45:45Z</time>
      </trkpt>
      <trkpt lat="46.33681" lon="5.94438">
        <ele>1251</ele>
        <time>2013-09-22T08:46:30Z</time>
      </trkpt>
      <trkpt lat="46.33619" lon="5.94418">
        <ele>1256</ele>
        <time>2013-09-22T08:46:55Z</time>
      </trkpt>
      <trkpt lat="46.3361" lon="5.94395">
        <ele>1254</ele>
        <time>2013-09-22T08:47:18Z</time>
      </trkpt>
      <trkpt lat="46.33502" lon="5.94363">
        <ele>1255</ele>
        <time>2013-09-22T08:48:24Z</time>
      </trkpt>
      <trkpt lat="46.33484" lon="5.94396">
        <ele>1261</ele>
        <time>2013-09-22T08:49:11Z</time>
      </trkpt>
      <trkpt lat="46.33426" lon="5.94433">
        <ele>1262</ele>
        <time>2013-09-22T08:49:45Z</time>
      </trkpt>
      <trkpt lat="46.33243" lon="5.94308">
        <ele>1252</ele>
        <time>2013-09-22T08:50:29Z</time>
      </trkpt>
      <trkpt lat="46.33184" lon="5.94228">
        <ele>1251</ele>
        <time>2013-09-22T08:50:59Z</time>
      </trkpt>
      <trkpt lat="46.33149" lon="5.94211">
        <ele>1253</ele>
        <time>2013-09-22T08:51:18Z</time>
      </trkpt>
      <trkpt lat="46.3307" lon="5.94228">
        <ele>1253</ele>
        <time>2013-09-22T08:51:36Z</time>
      </trkpt>
      <trkpt lat="46.32994" lon="5.94131">
        <ele>1246</ele>
        <time>2013-09-22T08:52:13Z</time>
      </trkpt>
      <trkpt lat="46.3297" lon="5.94073">
        <ele>1243</ele>
        <time>2013-09-22T08:52:21Z</time>
      </trkpt>
      <trkpt lat="46.3288" lon="5.93981">
        <ele>1226</ele>
        <time>2013-09-22T08:52:41Z</time>
      </trkpt>
      <trkpt lat="46.3289" lon="5.93937">
        <ele>1228</ele>
        <time>2013-09-22T08:52:52Z</time>
      </trkpt>
      <trkpt lat="46.32848" lon="5.93851">
        <ele>1226</ele>
        <time>2013-09-22T08:53:13Z</time>
      </trkpt>
      <trkpt lat="46.32798" lon="5.93791">
        <ele>1219</ele>
        <time>2013-09-22T08:53:39Z</time>
      </trkpt>
      <trkpt lat="46.32777" lon="5.93801">
        <ele>1217</ele>
        <time>2013-09-22T08:53:52Z</time>
      </trkpt>
      <trkpt lat="46.32764" lon="5.9388">
        <ele>1201</ele>
        <time>2013-09-22T08:54:29Z</time>
      </trkpt>
      <trkpt lat="46.32752" lon="5.93886">
        <ele>1198</ele>
        <time>2013-09-22T08:54:31Z</time>
      </trkpt>
      <trkpt lat="46.32732" lon="5.93962">
        <ele>1157</ele>
        <time>2013-09-22T08:54:58Z</time>
      </trkpt>
      <trkpt lat="46.32742" lon="5.93963">
        <ele>1158</ele>
        <time>2013-09-22T08:55:06Z</time>
      </trkpt>
      <trkpt lat="46.327" lon="5.94046">
        <ele>1133</ele>
        <time>2013-09-22T08:55:59Z</time>
      </trkpt>
      <trkpt lat="46.32662" lon="5.94068">
        <ele>1108</ele>
        <time>2013-09-22T08:56:21Z</time>
      </trkpt>
      <trkpt lat="46.32637" lon="5.94122">
        <ele>1093</ele>
        <time>2013-09-22T08:56:44Z</time>
      </trkpt>
      <trkpt lat="46.32606" lon="5.94129">
        <ele>1087</ele>
        <time>2013-09-22T08:56:57Z</time>
      </trkpt>
      <trkpt lat="46.32596" lon="5.94175">
        <ele>1072</ele>
        <time>2013-09-22T08:57:05Z</time>
      </trkpt>
      <trkpt lat="46.3255" lon="5.94216">
        <ele>1053</ele>
        <time>2013-09-22T08:57:20Z</time>
      </trkpt>
      <trkpt lat="46.32507" lon="5.94219">
        <ele>1048</ele>
        <time>2013-09-22T08:57:28Z</time>
      </trkpt>
      <trkpt lat="46.32481" lon="5.94252">
        <ele>1037</ele>
        <time>2013-09-22T08:57:35Z</time>
      </trkpt>
      <trkpt lat="46.32434" lon="5.94253">
        <ele>1038</ele>
        <time>2013-09-22T08:57:49Z</time>
      </trkpt>
      <trkpt lat="46.32373" lon="5.94337">
        <ele>1029</ele>
        <time>2013-09-22T08:58:16Z</time>
      </trkpt>
      <trkpt lat="46.32367" lon="5.94378">
        <ele>1027</ele>
        <time>2013-09-22T08:58:27Z</time>
      </trkpt>
      <trkpt lat="46.32312" lon="5.94367">
        <ele>1023</ele>
        <time>2013-09-22T08:58:52Z</time>
      </trkpt>
      <trkpt lat="46.32201" lon="5.94385">
        <ele>1012</ele>
        <time>2013-09-22T08:59:11Z</time>
      </trkpt>
      <trkpt lat="46.32156" lon="5.94368">
        <ele>1009</ele>
        <time>2013-09-22T08:59:20Z</time>
      </trkpt>
      <trkpt lat="46.32163" lon="5.94376">
        <ele>1008</ele>
        <time>2013-09-22T08:59:26Z</time>
      </trkpt>
      <trkpt lat="46.32135" lon="5.9443">
        <ele>992</ele>
        <time>2013-09-22T09:00:10Z</time>
      </trkpt>
      <trkpt lat="46.32089" lon="5.94447">
        <ele>990</ele>
        <time>2013-09-22T09:00:24Z</time>
      </trkpt>
      <trkpt lat="46.32033" lon="5.94432">
        <ele>984</ele>
        <time>2013-09-22T09:00:46Z</time>
      </trkpt>
      <trkpt lat="46.31948" lon="5.94478">
        <ele>965</ele>
        <time>2013-09-22T09:01:13Z</time>
      </trkpt>
      <trkpt lat="46.31869" lon="5.94456">
        <ele>951</ele>
        <time>2013-09-22T09:01:34Z</time>
      </trkpt>
      <trkpt lat="46.31864" lon="5.94471">
        <ele>949</ele>
        <time>2013-09-22T09:01:42Z</time>
      </trkpt>
      <trkpt lat="46.31895" lon="5.94506">
        <ele>943</ele>
        <time>2013-09-22T09:01:57Z</time>
      </trkpt>
      <trkpt lat="46.31949" lon="5.94634">
        <ele>934</ele>
        <time>2013-09-22T09:02:28Z</time>
      </trkpt>
      <trkpt lat="46.31927" lon="5.94757">
        <ele>906</ele>
        <time>2013-09-22T09:02:50Z</time>
      </trkpt>
      <trkpt lat="46.31822" lon="5.94728">
        <ele>902</ele>
        <time>2013-09-22T09:03:32Z</time>
      </trkpt>
      <trkpt lat="46.31818" lon="5.94702">
        <ele>905</ele>
        <time>2013-09-22T09:03:52Z</time>
      </trkpt>
      <trkpt lat="46.31798" lon="5.94694">
        <ele>905</ele>
        <time>2013-09-22T09:04:06Z</time>
      </trkpt>
      <trkpt lat="46.31662" lon="5.94494">
        <ele>907</ele>
        <time>2013-09-22T09:05:44Z</time>
      </trkpt>
      <trkpt lat="46.31596" lon="5.94485">
        <ele>905</ele>
        <time>2013-09-22T09:06:12Z</time>
      </trkpt>
      <trkpt lat="46.31515" lon="5.94413">
        <ele>901</ele>
        <time>2013-09-22T09:06:39Z</time>
      </trkpt>
      <trkpt lat="46.31508" lon="5.94386">
        <ele>903</ele>
        <time>2013-09-22T09:06:46Z</time>
      </trkpt>
      <trkpt lat="46.31463" lon="5.94351">
        <ele>899</ele>
        <time>2013-09-22T09:06:56Z</time>
      </trkpt>
      <trkpt lat="46.31364" lon="5.94359">
        <ele>888</ele>
        <time>2013-09-22T09:07:10Z</time>
      </trkpt>
      <trkpt lat="46.3135" lon="5.94308">
        <ele>892</ele>
        <time>2013-09-22T09:07:20Z</time>
      </trkpt>
      <trkpt lat="46.31331" lon="5.94312">
        <ele>884</ele>
        <time>2013-09-22T09:07:28Z</time>
      </trkpt>
      <trkpt lat="46.31238" lon="5.94245">
        <ele>879</ele>
        <time>2013-09-22T09:07:45Z</time>
      </trkpt>
      <trkpt lat="46.31177" lon="5.94231">
        <ele>876</ele>
        <time>2013-09-22T09:07:52Z</time>
      </trkpt>
      <trkpt lat="46.31038" lon="5.94131">
        <ele>876</ele>
        <time>2013-09-22T09:08:29Z</time>
      </trkpt>
      <trkpt lat="46.30968" lon="5.94139">
        <ele>871</ele>
        <time>2013-09-22T09:08:48Z</time>
      </trkpt>
      <trkpt lat="46.30934" lon="5.94164">
        <ele>869</ele>
        <time>2013-09-22T09:09:01Z</time>
      </trkpt>
      <trkpt lat="46.30845" lon="5.94157">
        <ele>868</ele>
        <time>2013-09-22T09:09:28Z</time>
      </trkpt>
      <trkpt lat="46.30796" lon="5.94089">
        <ele>868</ele>
        <time>2013-09-22T09:09:45Z</time>
      </trkpt>
      <trkpt lat="46.30706" lon="5.94011">
        <ele>865</ele>
        <time>2013-09-22T09:10:18Z</time>
      </trkpt>
      <trkpt lat="46.30701" lon="5.9397">
        <ele>865</ele>
        <time>2013-09-22T09:10:25Z</time>
      </trkpt>
      <trkpt lat="46.30715" lon="5.93932">
        <ele>866</ele>
        <time>2013-09-22T09:10:32Z</time>
      </trkpt>
      <trkpt lat="46.306" lon="5.93866">
        <ele>866</ele>
        <time>2013-09-22T09:11:08Z</time>
      </trkpt>
      <trkpt lat="46.30584" lon="5.93881">
        <ele>865</ele>
        <time>2013-09-22T09:11:16Z</time>
      </trkpt>
      <trkpt lat="46.30574" lon="5.93954">
        <ele>861</ele>
        <time>2013-09-22T09:11:33Z</time>
      </trkpt>
      <trkpt lat="46.30581" lon="5.94023">
        <ele>865</ele>
        <time>2013-09-22T09:11:58Z</time>
      </trkpt>
      <trkpt lat="46.30532" lon="5.94011">
        <ele>865</ele>
        <time>2013-09-22T09:12:14Z</time>
      </trkpt>
      <trkpt lat="46.30452" lon="5.93936">
        <ele>865</ele>
        <time>2013-09-22T09:12:48Z</time>
      </trkpt>
      <trkpt lat="46.30476" lon="5.94026">
        <ele>869</ele>
        <time>2013-09-22T09:13:23Z</time>
      </trkpt>
      <trkpt lat="46.30467" lon="5.94107">
        <ele>879</ele>
        <time>2013-09-22T09:13:59Z</time>
      </trkpt>
      <trkpt lat="46.30451" lon="5.94124">
        <ele>880</ele>
        <time>2013-09-22T09:14:11Z</time>
      </trkpt>
      <trkpt lat="46.30383" lon="5.94116">
        <ele>886</ele>
        <time>2013-09-22T09:14:51Z</time>
      </trkpt>
      <trkpt lat="46.30305" lon="5.94043">
        <ele>887</ele>
        <time>2013-09-22T09:17:36Z</time>
      </trkpt>
      <trkpt lat="46.3029" lon="5.9406">
        <ele>888</ele>
        <time>2013-09-22T09:17:52Z</time>
      </trkpt>
      <trkpt lat="46.30245" lon="5.94049">
        <ele>891</ele>
        <time>2013-09-22T09:18:04Z</time>
      </trkpt>
      <trkpt lat="46.30166" lon="5.93974">
        <ele>888</ele>
        <time>2013-09-22T09:18:25Z</time>
      </trkpt>
      <trkpt lat="46.30086" lon="5.93658">
        <ele>867</ele>
        <time>2013-09-22T09:18:49Z</time>
      </trkpt>
      <trkpt lat="46.30053" lon="5.93452">
        <ele>859</ele>
        <time>2013-09-22T09:19:01Z</time>
      </trkpt>
      <trkpt lat="46.29974" lon="5.93193">
        <ele>856</ele>
        <time>2013-09-22T09:19:23Z</time>
      </trkpt>
      <trkpt lat="46.2999" lon="5.93076">
        <ele>864</ele>
        <time>2013-09-22T09:19:56Z</time>
      </trkpt>
      <trkpt lat="46.29897" lon="5.92975">
        <ele>867</ele>
        <time>2013-09-22T09:20:43Z</time>
      </trkpt>
      <trkpt lat="46.29836" lon="5.92863">
        <ele>875</ele>
        <time>2013-09-22T09:21:28Z</time>
      </trkpt>
      <trkpt lat="46.29838" lon="5.92834">
        <ele>877</ele>
        <time>2013-09-22T09:21:38Z</time>
      </trkpt>
      <trkpt lat="46.29962" lon="5.92872">
        <ele>888</ele>
        <time>2013-09-22T09:22:57Z</time>
      </trkpt>
      <trkpt lat="46.30012" lon="5.92915">
        <ele>893</ele>
        <time>2013-09-22T09:23:32Z</time>
      </trkpt>
      <trkpt lat="46.30025" lon="5.92898">
        <ele>898</ele>
        <time>2013-09-22T09:23:44Z</time>
      </trkpt>
      <trkpt lat="46.29936" lon="5.9276">
        <ele>909</ele>
        <time>2013-09-22T09:24:45Z</time>
      </trkpt>
      <trkpt lat="46.29868" lon="5.92703">
        <ele>915</ele>
        <time>2013-09-22T09:25:29Z</time>
      </trkpt>
      <trkpt lat="46.29832" lon="5.92635">
        <ele>925</ele>
        <time>2013-09-22T09:26:03Z</time>
      </trkpt>
      <trkpt lat="46.29674" lon="5.92472">
        <ele>952</ele>
        <time>2013-09-22T09:28:04Z</time>
      </trkpt>
      <trkpt lat="46.29594" lon="5.92429">
        <ele>942</ele>
        <time>2013-09-22T09:29:09Z</time>
      </trkpt>
      <trkpt lat="46.29488" lon="5.92269">
        <ele>974</ele>
        <time>2013-09-22T09:31:18Z</time>
      </trkpt>
      <trkpt lat="46.29238" lon="5.92048">
        <ele>1005</ele>
        <time>2013-09-22T09:34:42Z</time>
      </trkpt>
      <trkpt lat="46.2917" lon="5.91934">
        <ele>1037</ele>
        <time>2013-09-22T09:35:54Z</time>
      </trkpt>
      <trkpt lat="46.29085" lon="5.91831">
        <ele>1044</ele>
        <time>2013-09-22T09:37:10Z</time>
      </trkpt>
      <trkpt lat="46.29088" lon="5.91797">
        <ele>1065</ele>
        <time>2013-09-22T09:37:37Z</time>
      </trkpt>
      <trkpt lat="46.29101" lon="5.91823">
        <ele>1058</ele>
        <time>2013-09-22T09:38:03Z</time>
      </trkpt>
      <trkpt lat="46.29195" lon="5.91864">
        <ele>1071</ele>
        <time>2013-09-22T09:39:08Z</time>
      </trkpt>
      <trkpt lat="46.29269" lon="5.91932">
        <ele>1065</ele>
        <time>2013-09-22T09:40:04Z</time>
      </trkpt>
      <trkpt lat="46.29322" lon="5.91935">
        <ele>1075</ele>
        <time>2013-09-22T09:40:27Z</time>
      </trkpt>
      <trkpt lat="46.2936" lon="5.91959">
        <ele>1079</ele>
        <time>2013-09-22T09:40:51Z</time>
      </trkpt>
      <trkpt lat="46.29398" lon="5.91954">
        <ele>1083</ele>
        <time>2013-09-22T09:41:17Z</time>
      </trkpt>
      <trkpt lat="46.2938" lon="5.91958">
        <ele>1080</ele>
        <time>2013-09-22T09:41:45Z</time>
      </trkpt>
      <trkpt lat="46.29251" lon="5.91859">
        <ele>1098</ele>
        <time>2013-09-22T09:42:49Z</time>
      </trkpt>
      <trkpt lat="46.29114" lon="5.91706">
        <ele>1102</ele>
        <time>2013-09-22T09:43:22Z</time>
      </trkpt>
      <trkpt lat="46.28936" lon="5.91571">
        <ele>1127</ele>
        <time>2013-09-22T09:45:39Z</time>
      </trkpt>
      <trkpt lat="46.28914" lon="5.91589">
        <ele>1112</ele>
        <time>2013-09-22T09:45:49Z</time>
      </trkpt>
      <trkpt lat="46.28815" lon="5.9157">
        <ele>1122</ele>
        <time>2013-09-22T09:46:59Z</time>
      </trkpt>
      <trkpt lat="46.28756" lon="5.91529">
        <ele>1126</ele>
        <time>2013-09-22T09:47:22Z</time>
      </trkpt>
      <trkpt lat="46.28664" lon="5.915">
        <ele>1130</ele>
        <time>2013-09-22T09:48:04Z</time>
      </trkpt>
      <trkpt lat="46.28619" lon="5.91422">
        <ele>1127</ele>
        <time>2013-09-22T09:48:19Z</time>
      </trkpt>
      <trkpt lat="46.28613" lon="5.9137">
        <ele>1136</ele>
        <time>2013-09-22T09:48:25Z</time>
      </trkpt>
      <trkpt lat="46.28575" lon="5.9128">
        <ele>1130</ele>
        <time>2013-09-22T09:48:37Z</time>
      </trkpt>
      <trkpt lat="46.28494" lon="5.91215">
        <ele>1130</ele>
        <time>2013-09-22T09:48:50Z</time>
      </trkpt>
      <trkpt lat="46.28368" lon="5.91284">
        <ele>1116</ele>
        <time>2013-09-22T09:49:55Z</time>
      </trkpt>
      <trkpt lat="46.2829" lon="5.91261">
        <ele>1124</ele>
        <time>2013-09-22T09:50:34Z</time>
      </trkpt>
      <trkpt lat="46.28221" lon="5.91162">
        <ele>1134</ele>
        <time>2013-09-22T09:51:05Z</time>
      </trkpt>
      <trkpt lat="46.2813" lon="5.91089">
        <ele>1120</ele>
        <time>2013-09-22T09:51:40Z</time>
      </trkpt>
      <trkpt lat="46.28087" lon="5.90973">
        <ele>1141</ele>
        <time>2013-09-22T09:52:17Z</time>
      </trkpt>
      <trkpt lat="46.28049" lon="5.90918">
        <ele>1133</ele>
        <time>2013-09-22T09:52:56Z</time>
      </trkpt>
      <trkpt lat="46.27986" lon="5.90913">
        <ele>1136</ele>
        <time>2013-09-22T09:53:32Z</time>
      </trkpt>
      <trkpt lat="46.27957" lon="5.9088">
        <ele>1141</ele>
        <time>2013-09-22T09:54:00Z</time>
      </trkpt>
      <trkpt lat="46.27914" lon="5.90872">
        <ele>1137</ele>
        <time>2013-09-22T09:54:26Z</time>
      </trkpt>
      <trkpt lat="46.2783" lon="5.90809">
        <ele>1150</ele>
        <time>2013-09-22T09:55:29Z</time>
      </trkpt>
      <trkpt lat="46.27803" lon="5.90768">
        <ele>1156</ele>
        <time>2013-09-22T09:55:54Z</time>
      </trkpt>
      <trkpt lat="46.27774" lon="5.90771">
        <ele>1154</ele>
        <time>2013-09-22T09:56:09Z</time>
      </trkpt>
      <trkpt lat="46.27689" lon="5.90641">
        <ele>1177</ele>
        <time>2013-09-22T09:57:37Z</time>
      </trkpt>
      <trkpt lat="46.27679" lon="5.9056">
        <ele>1195</ele>
        <time>2013-09-22T09:58:18Z</time>
      </trkpt>
      <trkpt lat="46.27601" lon="5.90531">
        <ele>1185</ele>
        <time>2013-09-22T09:59:15Z</time>
      </trkpt>
      <trkpt lat="46.27579" lon="5.90503">
        <ele>1184</ele>
        <time>2013-09-22T09:59:33Z</time>
      </trkpt>
      <trkpt lat="46.27579" lon="5.90464">
        <ele>1187</ele>
        <time>2013-09-22T09:59:49Z</time>
      </trkpt>
      <trkpt lat="46.2762" lon="5.90475">
        <ele>1201</ele>
        <time>2013-09-22T10:00:14Z</time>
      </trkpt>
      <trkpt lat="46.27639" lon="5.90456">
        <ele>1204</ele>
        <time>2013-09-22T10:00:27Z</time>
      </trkpt>
      <trkpt lat="46.27626" lon="5.90377">
        <ele>1215</ele>
        <time>2013-09-22T10:01:10Z</time>
      </trkpt>
      <trkpt lat="46.27549" lon="5.90305">
        <ele>1210</ele>
        <time>2013-09-22T10:02:12Z</time>
      </trkpt>
      <trkpt lat="46.27437" lon="5.90089">
        <ele>1234</ele>
        <time>2013-09-22T10:04:04Z</time>
      </trkpt>
      <trkpt lat="46.27422" lon="5.89988">
        <ele>1249</ele>
        <time>2013-09-22T10:04:40Z</time>
      </trkpt>
      <trkpt lat="46.2736" lon="5.89847">
        <ele>1249</ele>
        <time>2013-09-22T10:05:47Z</time>
      </trkpt>
      <trkpt lat="46.27377" lon="5.89781">
        <ele>1262</ele>
        <time>2013-09-22T10:06:17Z</time>
      </trkpt>
      <trkpt lat="46.2736" lon="5.89718">
        <ele>1267</ele>
        <time>2013-09-22T10:06:45Z</time>
      </trkpt>
      <trkpt lat="46.27374" lon="5.89638">
        <ele>1271</ele>
        <time>2013-09-22T10:07:06Z</time>
      </trkpt>
      <trkpt lat="46.27421" lon="5.89504">
        <ele>1274</ele>
        <time>2013-09-22T10:07:43Z</time>
      </trkpt>
      <trkpt lat="46.27434" lon="5.89426">
        <ele>1272</ele>
        <time>2013-09-22T10:08:05Z</time>
      </trkpt>
      <trkpt lat="46.27473" lon="5.89355">
        <ele>1271</ele>
        <time>2013-09-22T10:08:20Z</time>
      </trkpt>
      <trkpt lat="46.27455" lon="5.89291">
        <ele>1263</ele>
        <time>2013-09-22T10:08:29Z</time>
      </trkpt>
      <trkpt lat="46.27483" lon="5.89169">
        <ele>1254</ele>
        <time>2013-09-22T10:08:41Z</time>
      </trkpt>
      <trkpt lat="46.2753" lon="5.89133">
        <ele>1259</ele>
        <time>2013-09-22T10:08:49Z</time>
      </trkpt>
      <trkpt lat="46.27515" lon="5.89113">
        <ele>1258</ele>
        <time>2013-09-22T10:08:55Z</time>
      </trkpt>
      <trkpt lat="46.27529" lon="5.89018">
        <ele>1264</ele>
        <time>2013-09-22T10:09:37Z</time>
      </trkpt>
      <trkpt lat="46.27467" lon="5.88923">
        <ele>1269</ele>
        <time>2013-09-22T10:10:07Z</time>
      </trkpt>
      <trkpt lat="46.27377" lon="5.88844">
        <ele>1268</ele>
        <time>2013-09-22T10:10:19Z</time>
      </trkpt>
      <trkpt lat="46.27238" lon="5.88761">
        <ele>1273</ele>
        <time>2013-09-22T10:10:47Z</time>
      </trkpt>
      <trkpt lat="46.27144" lon="5.8878">
        <ele>1267</ele>
        <time>2013-09-22T10:11:09Z</time>
      </trkpt>
      <trkpt lat="46.27126" lon="5.88743">
        <ele>1279</ele>
        <time>2013-09-22T10:11:23Z</time>
      </trkpt>
      <trkpt lat="46.26926" lon="5.88543">
        <ele>1309</ele>
        <time>2013-09-22T10:14:33Z</time>
      </trkpt>
      <trkpt lat="46.26733" lon="5.88154">
        <ele>1329</ele>
        <time>2013-09-22T10:18:49Z</time>
      </trkpt>
      <trkpt lat="46.26726" lon="5.88038">
        <ele>1345</ele>
        <time>2013-09-22T10:19:35Z</time>
      </trkpt>
      <trkpt lat="46.2667" lon="5.87942">
        <ele>1355</ele>
        <time>2013-09-22T10:20:30Z</time>
      </trkpt>
      <trkpt lat="46.26643" lon="5.87858">
        <ele>1348</ele>
        <time>2013-09-22T10:20:57Z</time>
      </trkpt>
      <trkpt lat="46.26647" lon="5.878">
        <ele>1349</ele>
        <time>2013-09-22T10:21:18Z</time>
      </trkpt>
      <trkpt lat="46.26709" lon="5.87779">
        <ele>1357</ele>
        <time>2013-09-22T10:21:41Z</time>
      </trkpt>
      <trkpt lat="46.26706" lon="5.87674">
        <ele>1351</ele>
        <time>2013-09-22T10:21:51Z</time>
      </trkpt>
      <trkpt lat="46.26669" lon="5.8761">
        <ele>1341</ele>
        <time>2013-09-22T10:21:58Z</time>
      </trkpt>
      <trkpt lat="46.2664" lon="5.87593">
        <ele>1333</ele>
        <time>2013-09-22T10:22:02Z</time>
      </trkpt>
      <trkpt lat="46.26651" lon="5.87533">
        <ele>1326</ele>
        <time>2013-09-22T10:22:11Z</time>
      </trkpt>
      <trkpt lat="46.26632" lon="5.87496">
        <ele>1322</ele>
        <time>2013-09-22T10:22:18Z</time>
      </trkpt>
      <trkpt lat="46.2661" lon="5.87336">
        <ele>1315</ele>
        <time>2013-09-22T10:22:31Z</time>
      </trkpt>
      <trkpt lat="46.2654" lon="5.87229">
        <ele>1303</ele>
        <time>2013-09-22T10:22:45Z</time>
      </trkpt>
      <trkpt lat="46.26541" lon="5.87185">
        <ele>1304</ele>
        <time>2013-09-22T10:22:49Z</time>
      </trkpt>
      <trkpt lat="46.26486" lon="5.86952">
        <ele>1285</ele>
        <time>2013-09-22T10:23:07Z</time>
      </trkpt>
      <trkpt lat="46.26521" lon="5.86917">
        <ele>1294</ele>
        <time>2013-09-22T10:23:16Z</time>
      </trkpt>
      <trkpt lat="46.26616" lon="5.86903">
        <ele>1296</ele>
        <time>2013-09-22T10:23:45Z</time>
      </trkpt>
      <trkpt lat="46.2661" lon="5.86913">
        <ele>1297</ele>
        <time>2013-09-22T10:23:52Z</time>
      </trkpt>
      <trkpt lat="46.26528" lon="5.86851">
        <ele>1294</ele>
        <time>2013-09-22T10:24:34Z</time>
      </trkpt>
      <trkpt lat="46.26524" lon="5.86823">
        <ele>1295</ele>
        <time>2013-09-22T10:24:42Z</time>
      </trkpt>
      <trkpt lat="46.26506" lon="5.86823">
        <ele>1295</ele>
        <time>2013-09-22T10:24:55Z</time>
      </trkpt>
      <trkpt lat="46.26498" lon="5.86798">
        <ele>1295</ele>
        <time>2013-09-22T10:25:06Z</time>
      </trkpt>
      <trkpt lat="46.26468" lon="5.86796">
        <ele>1295</ele>
        <time>2013-09-22T10:25:19Z</time>
      </trkpt>
      <trkpt lat="46.26406" lon="5.86707">
        <ele>1302</ele>
        <time>2013-09-22T10:26:01Z</time>
      </trkpt>
      <trkpt lat="46.26386" lon="5.86605">
        <ele>1307</ele>
        <time>2013-09-22T10:26:26Z</time>
      </trkpt>
      <trkpt lat="46.26353" lon="5.86577">
        <ele>1307</ele>
        <time>2013-09-22T10:26:47Z</time>
      </trkpt>
      <trkpt lat="46.26332" lon="5.86495">
        <ele>1310</ele>
        <time>2013-09-22T10:27:17Z</time>
      </trkpt>
      <trkpt lat="46.26339" lon="5.86376">
        <ele>1306</ele>
        <time>2013-09-22T10:27:50Z</time>
      </trkpt>
      <trkpt lat="46.26329" lon="5.86329">
        <ele>1310</ele>
        <time>2013-09-22T10:27:57Z</time>
      </trkpt>
      <trkpt lat="46.26229" lon="5.86184">
        <ele>1318</ele>
        <time>2013-09-22T10:28:26Z</time>
      </trkpt>
      <trkpt lat="46.26246" lon="5.86014">
        <ele>1307</ele>
        <time>2013-09-22T10:28:47Z</time>
      </trkpt>
      <trkpt lat="46.26233" lon="5.8599">
        <ele>1303</ele>
        <time>2013-09-22T10:28:51Z</time>
      </trkpt>
      <trkpt lat="46.26217" lon="5.86002">
        <ele>1311</ele>
        <time>2013-09-22T10:28:53Z</time>
      </trkpt>
      <trkpt lat="46.26183" lon="5.85976">
        <ele>1308</ele>
        <time>2013-09-22T10:28:59Z</time>
      </trkpt>
      <trkpt lat="46.26114" lon="5.85742">
        <ele>1288</ele>
        <time>2013-09-22T10:29:18Z</time>
      </trkpt>
      <trkpt lat="46.2601" lon="5.85725">
        <ele>1298</ele>
        <time>2013-09-22T10:29:30Z</time>
      </trkpt>
      <trkpt lat="46.25986" lon="5.85494">
        <ele>1286</ele>
        <time>2013-09-22T10:30:15Z</time>
      </trkpt>
      <trkpt lat="46.25903" lon="5.85523">
        <ele>1312</ele>
        <time>2013-09-22T10:30:42Z</time>
      </trkpt>
      <trkpt lat="46.25864" lon="5.85508">
        <ele>1318</ele>
        <time>2013-09-22T10:30:56Z</time>
      </trkpt>
      <trkpt lat="46.25823" lon="5.85326">
        <ele>1295</ele>
        <time>2013-09-22T10:31:39Z</time>
      </trkpt>
      <trkpt lat="46.25753" lon="5.8533">
        <ele>1315</ele>
        <time>2013-09-22T10:31:59Z</time>
      </trkpt>
      <trkpt lat="46.25748" lon="5.85315">
        <ele>1321</ele>
        <time>2013-09-22T10:32:04Z</time>
      </trkpt>
      <trkpt lat="46.25727" lon="5.85321">
        <ele>1323</ele>
        <time>2013-09-22T10:32:11Z</time>
      </trkpt>
      <trkpt lat="46.25688" lon="5.85222">
        <ele>1315</ele>
        <time>2013-09-22T10:32:37Z</time>
      </trkpt>
      <trkpt lat="46.25667" lon="5.85212">
        <ele>1315</ele>
        <time>2013-09-22T10:32:46Z</time>
      </trkpt>
      <trkpt lat="46.25604" lon="5.85244">
        <ele>1340</ele>
        <time>2013-09-22T10:33:02Z</time>
      </trkpt>
      <trkpt lat="46.25609" lon="5.85146">
        <ele>1320</ele>
        <time>2013-09-22T10:33:14Z</time>
      </trkpt>
      <trkpt lat="46.25552" lon="5.85157">
        <ele>1331</ele>
        <time>2013-09-22T10:33:32Z</time>
      </trkpt>
      <trkpt lat="46.2554" lon="5.85136">
        <ele>1330</ele>
        <time>2013-09-22T10:33:39Z</time>
      </trkpt>
      <trkpt lat="46.25513" lon="5.85141">
        <ele>1334</ele>
        <time>2013-09-22T10:33:45Z</time>
      </trkpt>
      <trkpt lat="46.25505" lon="5.85116">
        <ele>1330</ele>
        <time>2013-09-22T10:33:53Z</time>
      </trkpt>
      <trkpt lat="46.2546" lon="5.85084">
        <ele>1335</ele>
        <time>2013-09-22T10:34:11Z</time>
      </trkpt>
      <trkpt lat="46.25398" lon="5.85088">
        <ele>1339</ele>
        <time>2013-09-22T10:34:29Z</time>
      </trkpt>
      <trkpt lat="46.25252" lon="5.84843">
        <ele>1318</ele>
        <time>2013-09-22T10:35:14Z</time>
      </trkpt>
      <trkpt lat="46.25169" lon="5.84739">
        <ele>1316</ele>
        <time>2013-09-22T10:35:28Z</time>
      </trkpt>
      <trkpt lat="46.2517" lon="5.84599">
        <ele>1315</ele>
        <time>2013-09-22T10:35:46Z</time>
      </trkpt>
      <trkpt lat="46.2516" lon="5.8459">
        <ele>1315</ele>
        <time>2013-09-22T10:35:48Z</time>
      </trkpt>
      <trkpt lat="46.25139" lon="5.8443">
        <ele>1275</ele>
        <time>2013-09-22T10:36:00Z</time>
      </trkpt>
      <trkpt lat="46.25106" lon="5.84338">
        <ele>1247</ele>
        <time>2013-09-22T10:36:12Z</time>
      </trkpt>
      <trkpt lat="46.2501" lon="5.84379">
        <ele>1287</ele>
        <time>2013-09-22T10:36:18Z</time>
      </trkpt>
      <trkpt lat="46.2498" lon="5.8432">
        <ele>1280</ele>
        <time>2013-09-22T10:36:24Z</time>
      </trkpt>
      <trkpt lat="46.24974" lon="5.84243">
        <ele>1251</ele>
        <time>2013-09-22T10:36:29Z</time>
      </trkpt>
      <trkpt lat="46.24958" lon="5.84229">
        <ele>1253</ele>
        <time>2013-09-22T10:36:31Z</time>
      </trkpt>
      <trkpt lat="46.24931" lon="5.84146">
        <ele>1232</ele>
        <time>2013-09-22T10:36:38Z</time>
      </trkpt>
      <trkpt lat="46.2483" lon="5.84089">
        <ele>1260</ele>
        <time>2013-09-22T10:36:49Z</time>
      </trkpt>
      <trkpt lat="46.24809" lon="5.84059">
        <ele>1250</ele>
        <time>2013-09-22T10:36:53Z</time>
      </trkpt>
      <trkpt lat="46.24734" lon="5.84024">
        <ele>1263</ele>
        <time>2013-09-22T10:37:01Z</time>
      </trkpt>
      <trkpt lat="46.24725" lon="5.83943">
        <ele>1229</ele>
        <time>2013-09-22T10:37:06Z</time>
      </trkpt>
      <trkpt lat="46.24664" lon="5.83962">
        <ele>1253</ele>
        <time>2013-09-22T10:37:11Z</time>
      </trkpt>
      <trkpt lat="46.24548" lon="5.83896">
        <ele>1234</ele>
        <time>2013-09-22T10:37:21Z</time>
      </trkpt>
      <trkpt lat="46.2453" lon="5.83903">
        <ele>1237</ele>
        <time>2013-09-22T10:37:22Z</time>
      </trkpt>
      <trkpt lat="46.24419" lon="5.83853">
        <ele>1233</ele>
        <time>2013-09-22T10:37:34Z</time>
      </trkpt>
      <trkpt lat="46.24423" lon="5.83807">
        <ele>1215</ele>
        <time>2013-09-22T10:37:38Z</time>
      </trkpt>
      <trkpt lat="46.24335" lon="5.83803">
        <ele>1215</ele>
        <time>2013-09-22T10:37:50Z</time>
      </trkpt>
      <trkpt lat="46.24295" lon="5.83831">
        <ele>1218</ele>
        <time>2013-09-22T10:38:00Z</time>
      </trkpt>
      <trkpt lat="46.2424" lon="5.83655">
        <ele>1197</ele>
        <time>2013-09-22T10:38:27Z</time>
      </trkpt>
      <trkpt lat="46.24205" lon="5.83615">
        <ele>1197</ele>
        <time>2013-09-22T10:38:35Z</time>
      </trkpt>
      <trkpt lat="46.24154" lon="5.835">
        <ele>1175</ele>
        <time>2013-09-22T10:38:51Z</time>
      </trkpt>
      <trkpt lat="46.24012" lon="5.83462">
        <ele>1172</ele>
        <time>2013-09-22T10:39:14Z</time>
      </trkpt>
      <trkpt lat="46.23971" lon="5.83476">
        <ele>1175</ele>
        <time>2013-09-22T10:39:25Z</time>
      </trkpt>
      <trkpt lat="46.23936" lon="5.83405">
        <ele>1177</ele>
        <time>2013-09-22T10:39:47Z</time>
      </trkpt>
      <trkpt lat="46.23989" lon="5.83295">
        <ele>1176</ele>
        <time>2013-09-22T10:40:27Z</time>
      </trkpt>
      <trkpt lat="46.23952" lon="5.83187">
        <ele>1174</ele>
        <time>2013-09-22T10:40:46Z</time>
      </trkpt>
      <trkpt lat="46.23916" lon="5.83132">
        <ele>1182</ele>
        <time>2013-09-22T10:40:55Z</time>
      </trkpt>
      <trkpt lat="46.2392" lon="5.83047">
        <ele>1158</ele>
        <time>2013-09-22T10:41:03Z</time>
      </trkpt>
      <trkpt lat="46.239" lon="5.82988">
        <ele>1164</ele>
        <time>2013-09-22T10:41:09Z</time>
      </trkpt>
      <trkpt lat="46.23831" lon="5.829">
        <ele>1173</ele>
        <time>2013-09-22T10:41:21Z</time>
      </trkpt>
      <trkpt lat="46.23815" lon="5.82836">
        <ele>1170</ele>
        <time>2013-09-22T10:41:26Z</time>
      </trkpt>
      <trkpt lat="46.23821" lon="5.82725">
        <ele>1156</ele>
        <time>2013-09-22T10:41:34Z</time>
      </trkpt>
      <trkpt lat="46.23776" lon="5.82627">
        <ele>1150</ele>
        <time>2013-09-22T10:41:46Z</time>
      </trkpt>
      <trkpt lat="46.23761" lon="5.8254">
        <ele>1146</ele>
        <time>2013-09-22T10:41:54Z</time>
      </trkpt>
      <trkpt lat="46.23713" lon="5.82453">
        <ele>1155</ele>
        <time>2013-09-22T10:42:20Z</time>
      </trkpt>
      <trkpt lat="46.23701" lon="5.82381">
        <ele>1154</ele>
        <time>2013-09-22T10:42:39Z</time>
      </trkpt>
      <trkpt lat="46.23674" lon="5.82365">
        <ele>1156</ele>
        <time>2013-09-22T10:42:50Z</time>
      </trkpt>
      <trkpt lat="46.23675" lon="5.82154">
        <ele>1161</ele>
        <time>2013-09-22T10:43:47Z</time>
      </trkpt>
      <trkpt lat="46.23637" lon="5.82084">
        <ele>1166</ele>
        <time>2013-09-22T10:44:07Z</time>
      </trkpt>
      <trkpt lat="46.23619" lon="5.81837">
        <ele>1173</ele>
        <time>2013-09-22T10:44:54Z</time>
      </trkpt>
      <trkpt lat="46.23569" lon="5.81712">
        <ele>1170</ele>
        <time>2013-09-22T10:45:16Z</time>
      </trkpt>
      <trkpt lat="46.2354" lon="5.81717">
        <ele>1170</ele>
        <time>2013-09-22T10:46:08Z</time>
      </trkpt>
      <trkpt lat="46.23578" lon="5.81714">
        <ele>1170</ele>
        <time>2013-09-22T10:47:21Z</time>
      </trkpt>
      <trkpt lat="46.23513" lon="5.81673">
        <ele>1168</ele>
        <time>2013-09-22T10:47:50Z</time>
      </trkpt>
      <trkpt lat="46.2346" lon="5.81581">
        <ele>1161</ele>
        <time>2013-09-22T10:48:01Z</time>
      </trkpt>
      <trkpt lat="46.23433" lon="5.81498">
        <ele>1162</ele>
        <time>2013-09-22T10:48:09Z</time>
      </trkpt>
      <trkpt lat="46.23427" lon="5.81364">
        <ele>1164</ele>
        <time>2013-09-22T10:48:23Z</time>
      </trkpt>
      <trkpt lat="46.23379" lon="5.81269">
        <ele>1168</ele>
        <time>2013-09-22T10:48:41Z</time>
      </trkpt>
      <trkpt lat="46.23319" lon="5.81244">
        <ele>1165</ele>
        <time>2013-09-22T10:48:56Z</time>
      </trkpt>
      <trkpt lat="46.23291" lon="5.81196">
        <ele>1165</ele>
        <time>2013-09-22T10:49:08Z</time>
      </trkpt>
      <trkpt lat="46.23286" lon="5.81144">
        <ele>1167</ele>
        <time>2013-09-22T10:49:17Z</time>
      </trkpt>
      <trkpt lat="46.23248" lon="5.81048">
        <ele>1169</ele>
        <time>2013-09-22T10:49:38Z</time>
      </trkpt>
      <trkpt lat="46.23258" lon="5.81012">
        <ele>1170</ele>
        <time>2013-09-22T10:49:44Z</time>
      </trkpt>
      <trkpt lat="46.23309" lon="5.80953">
        <ele>1175</ele>
        <time>2013-09-22T10:50:03Z</time>
      </trkpt>
      <trkpt lat="46.23278" lon="5.80897">
        <ele>1180</ele>
        <time>2013-09-22T10:50:27Z</time>
      </trkpt>
      <trkpt lat="46.23289" lon="5.80747">
        <ele>1195</ele>
        <time>2013-09-22T10:51:13Z</time>
      </trkpt>
      <trkpt lat="46.23327" lon="5.80684">
        <ele>1197</ele>
        <time>2013-09-22T10:51:36Z</time>
      </trkpt>
      <trkpt lat="46.23382" lon="5.80733">
        <ele>1192</ele>
        <time>2013-09-22T10:52:03Z</time>
      </trkpt>
      <trkpt lat="46.23556" lon="5.8074">
        <ele>1192</ele>
        <time>2013-09-22T10:52:40Z</time>
      </trkpt>
      <trkpt lat="46.23626" lon="5.80793">
        <ele>1185</ele>
        <time>2013-09-22T10:53:00Z</time>
      </trkpt>
      <trkpt lat="46.23754" lon="5.80793">
        <ele>1189</ele>
        <time>2013-09-22T10:54:24Z</time>
      </trkpt>
      <trkpt lat="46.23842" lon="5.80704">
        <ele>1181</ele>
        <time>2013-09-22T10:55:40Z</time>
      </trkpt>
      <trkpt lat="46.23811" lon="5.80651">
        <ele>1189</ele>
        <time>2013-09-22T10:56:09Z</time>
      </trkpt>
      <trkpt lat="46.23683" lon="5.80516">
        <ele>1197</ele>
        <time>2013-09-22T10:57:00Z</time>
      </trkpt>
      <trkpt lat="46.23685" lon="5.80472">
        <ele>1179</ele>
        <time>2013-09-22T10:57:08Z</time>
      </trkpt>
      <trkpt lat="46.23617" lon="5.80367">
        <ele>1188</ele>
        <time>2013-09-22T10:57:32Z</time>
      </trkpt>
      <trkpt lat="46.23494" lon="5.80318">
        <ele>1198</ele>
        <time>2013-09-22T10:58:16Z</time>
      </trkpt>
      <trkpt lat="46.23452" lon="5.80234">
        <ele>1186</ele>
        <time>2013-09-22T10:58:28Z</time>
      </trkpt>
      <trkpt lat="46.23463" lon="5.8011">
        <ele>1183</ele>
        <time>2013-09-22T10:58:50Z</time>
      </trkpt>
      <trkpt lat="46.23452" lon="5.8005">
        <ele>1180</ele>
        <time>2013-09-22T10:59:02Z</time>
      </trkpt>
      <trkpt lat="46.23484" lon="5.79891">
        <ele>1172</ele>
        <time>2013-09-22T10:59:55Z</time>
      </trkpt>
      <trkpt lat="46.23478" lon="5.79863">
        <ele>1170</ele>
        <time>2013-09-22T11:00:01Z</time>
      </trkpt>
      <trkpt lat="46.23493" lon="5.79792">
        <ele>1166</ele>
        <time>2013-09-22T11:00:12Z</time>
      </trkpt>
      <trkpt lat="46.23445" lon="5.79557">
        <ele>1164</ele>
        <time>2013-09-22T11:01:30Z</time>
      </trkpt>
      <trkpt lat="46.23456" lon="5.795">
        <ele>1166</ele>
        <time>2013-09-22T11:01:45Z</time>
      </trkpt>
      <trkpt lat="46.23393" lon="5.79407">
        <ele>1170</ele>
        <time>2013-09-22T11:02:35Z</time>
      </trkpt>
      <trkpt lat="46.23387" lon="5.79354">
        <ele>1172</ele>
        <time>2013-09-22T11:03:17Z</time>
      </trkpt>
      <trkpt lat="46.23413" lon="5.79264">
        <ele>1174</ele>
        <time>2013-09-22T11:04:08Z</time>
      </trkpt>
      <trkpt lat="46.2347" lon="5.79223">
        <ele>1170</ele>
        <time>2013-09-22T11:04:20Z</time>
      </trkpt>
      <trkpt lat="46.23508" lon="5.79124">
        <ele>1159</ele>
        <time>2013-09-22T11:04:45Z</time>
      </trkpt>
      <trkpt lat="46.23619" lon="5.78987">
        <ele>1144</ele>
        <time>2013-09-22T11:05:24Z</time>
      </trkpt>
      <trkpt lat="46.23615" lon="5.7889">
        <ele>1147</ele>
        <time>2013-09-22T11:05:47Z</time>
      </trkpt>
      <trkpt lat="46.23581" lon="5.78723">
        <ele>1140</ele>
        <time>2013-09-22T11:06:08Z</time>
      </trkpt>
      <trkpt lat="46.23668" lon="5.78642">
        <ele>1118</ele>
        <time>2013-09-22T11:06:21Z</time>
      </trkpt>
      <trkpt lat="46.23692" lon="5.78594">
        <ele>1114</ele>
        <time>2013-09-22T11:06:24Z</time>
      </trkpt>
      <trkpt lat="46.23663" lon="5.78396">
        <ele>1081</ele>
        <time>2013-09-22T11:06:36Z</time>
      </trkpt>
      <trkpt lat="46.23643" lon="5.78383">
        <ele>1079</ele>
        <time>2013-09-22T11:06:38Z</time>
      </trkpt>
      <trkpt lat="46.2357" lon="5.78409">
        <ele>1092</ele>
        <time>2013-09-22T11:06:43Z</time>
      </trkpt>
      <trkpt lat="46.23544" lon="5.78381">
        <ele>1091</ele>
        <time>2013-09-22T11:06:47Z</time>
      </trkpt>
      <trkpt lat="46.23539" lon="5.78337">
        <ele>1088</ele>
        <time>2013-09-22T11:06:50Z</time>
      </trkpt>
      <trkpt lat="46.23499" lon="5.78282">
        <ele>1082</ele>
        <time>2013-09-22T11:07:06Z</time>
      </trkpt>
      <trkpt lat="46.23228" lon="5.78148">
        <ele>1080</ele>
        <time>2013-09-22T11:08:37Z</time>
      </trkpt>
      <trkpt lat="46.23142" lon="5.78156">
        <ele>1087</ele>
        <time>2013-09-22T11:09:27Z</time>
      </trkpt>
      <trkpt lat="46.23084" lon="5.78131">
        <ele>1089</ele>
        <time>2013-09-22T11:09:59Z</time>
      </trkpt>
      <trkpt lat="46.23046" lon="5.78136">
        <ele>1098</ele>
        <time>2013-09-22T11:10:25Z</time>
      </trkpt>
      <trkpt lat="46.22918" lon="5.78071">
        <ele>1093</ele>
        <time>2013-09-22T11:11:03Z</time>
      </trkpt>
      <trkpt lat="46.22714" lon="5.78007">
        <ele>1100</ele>
        <time>2013-09-22T11:12:05Z</time>
      </trkpt>
      <trkpt lat="46.22655" lon="5.77952">
        <ele>1086</ele>
        <time>2013-09-22T11:12:21Z</time>
      </trkpt>
      <trkpt lat="46.2249" lon="5.77922">
        <ele>1074</ele>
        <time>2013-09-22T11:12:42Z</time>
      </trkpt>
      <trkpt lat="46.22465" lon="5.77864">
        <ele>1058</ele>
        <time>2013-09-22T11:12:50Z</time>
      </trkpt>
      <trkpt lat="46.22466" lon="5.77744">
        <ele>1038</ele>
        <time>2013-09-22T11:13:07Z</time>
      </trkpt>
      <trkpt lat="46.2252" lon="5.77647">
        <ele>1026</ele>
        <time>2013-09-22T11:13:19Z</time>
      </trkpt>
      <trkpt lat="46.22587" lon="5.77585">
        <ele>1018</ele>
        <time>2013-09-22T11:13:34Z</time>
      </trkpt>
      <trkpt lat="46.22587" lon="5.77557">
        <ele>1015</ele>
        <time>2013-09-22T11:13:39Z</time>
      </trkpt>
      <trkpt lat="46.22682" lon="5.7749">
        <ele>1008</ele>
        <time>2013-09-22T11:13:57Z</time>
      </trkpt>
      <trkpt lat="46.22688" lon="5.77463">
        <ele>1006</ele>
        <time>2013-09-22T11:14:01Z</time>
      </trkpt>
      <trkpt lat="46.22642" lon="5.77394">
        <ele>1003</ele>
        <time>2013-09-22T11:16:08Z</time>
      </trkpt>
      <trkpt lat="46.22655" lon="5.77413">
        <ele>1004</ele>
        <time>2013-09-22T11:17:02Z</time>
      </trkpt>
      <trkpt lat="46.2267" lon="5.7739">
        <ele>1001</ele>
        <time>2013-09-22T11:17:45Z</time>
      </trkpt>
      <trkpt lat="46.22836" lon="5.77425">
        <ele>997</ele>
        <time>2013-09-22T11:18:14Z</time>
      </trkpt>
      <trkpt lat="46.23006" lon="5.77277">
        <ele>978</ele>
        <time>2013-09-22T11:18:37Z</time>
      </trkpt>
      <trkpt lat="46.23067" lon="5.77272">
        <ele>975</ele>
        <time>2013-09-22T11:18:43Z</time>
      </trkpt>
      <trkpt lat="46.23206" lon="5.77333">
        <ele>969</ele>
        <time>2013-09-22T11:18:56Z</time>
      </trkpt>
      <trkpt lat="46.23226" lon="5.77311">
        <ele>968</ele>
        <time>2013-09-22T11:19:00Z</time>
      </trkpt>
      <trkpt lat="46.23167" lon="5.77277">
        <ele>966</ele>
        <time>2013-09-22T11:19:07Z</time>
      </trkpt>
      <trkpt lat="46.23062" lon="5.77159">
        <ele>954</ele>
        <time>2013-09-22T11:19:20Z</time>
      </trkpt>
      <trkpt lat="46.23066" lon="5.77128">
        <ele>952</ele>
        <time>2013-09-22T11:19:24Z</time>
      </trkpt>
      <trkpt lat="46.23118" lon="5.77149">
        <ele>946</ele>
        <time>2013-09-22T11:19:32Z</time>
      </trkpt>
      <trkpt lat="46.23001" lon="5.7702">
        <ele>939</ele>
        <time>2013-09-22T11:20:05Z</time>
      </trkpt>
      <trkpt lat="46.22962" lon="5.76861">
        <ele>925</ele>
        <time>2013-09-22T11:20:48Z</time>
      </trkpt>
      <trkpt lat="46.22892" lon="5.76716">
        <ele>911</ele>
        <time>2013-09-22T11:21:39Z</time>
      </trkpt>
      <trkpt lat="46.22867" lon="5.76555">
        <ele>877</ele>
        <time>2013-09-22T11:22:36Z</time>
      </trkpt>
      <trkpt lat="46.22836" lon="5.76502">
        <ele>870</ele>
        <time>2013-09-22T11:23:01Z</time>
      </trkpt>
      <trkpt lat="46.22837" lon="5.76476">
        <ele>858</ele>
        <time>2013-09-22T11:23:06Z</time>
      </trkpt>
      <trkpt lat="46.22932" lon="5.76409">
        <ele>825</ele>
        <time>2013-09-22T11:23:40Z</time>
      </trkpt>
      <trkpt lat="46.22866" lon="5.76333">
        <ele>808</ele>
        <time>2013-09-22T11:24:22Z</time>
      </trkpt>
      <trkpt lat="46.22848" lon="5.76346">
        <ele>824</ele>
        <time>2013-09-22T11:24:38Z</time>
      </trkpt>
      <trkpt lat="46.22859" lon="5.76305">
        <ele>806</ele>
        <time>2013-09-22T11:25:04Z</time>
      </trkpt>
      <trkpt lat="46.22807" lon="5.76149">
        <ele>771</ele>
        <time>2013-09-22T11:25:38Z</time>
      </trkpt>
      <trkpt lat="46.22619" lon="5.75893">
        <ele>716</ele>
        <time>2013-09-22T11:26:41Z</time>
      </trkpt>
      <trkpt lat="46.22464" lon="5.75757">
        <ele>688</ele>
        <time>2013-09-22T11:27:37Z</time>
      </trkpt>
      <trkpt lat="46.22451" lon="5.75719">
        <ele>664</ele>
        <time>2013-09-22T11:27:54Z</time>
      </trkpt>
      <trkpt lat="46.22318" lon="5.75628">
        <ele>661</ele>
        <time>2013-09-22T11:28:19Z</time>
      </trkpt>
      <trkpt lat="46.22201" lon="5.75504">
        <ele>652</ele>
        <time>2013-09-22T11:28:48Z</time>
      </trkpt>
      <trkpt lat="46.2214" lon="5.75411">
        <ele>630</ele>
        <time>2013-09-22T11:28:57Z</time>
      </trkpt>
      <trkpt lat="46.22049" lon="5.75342">
        <ele>639</ele>
        <time>2013-09-22T11:29:09Z</time>
      </trkpt>
      <trkpt lat="46.21987" lon="5.75265">
        <ele>617</ele>
        <time>2013-09-22T11:29:22Z</time>
      </trkpt>
      <trkpt lat="46.21822" lon="5.75181">
        <ele>605</ele>
        <time>2013-09-22T11:29:51Z</time>
      </trkpt>
      <trkpt lat="46.21567" lon="5.75168">
        <ele>600</ele>
        <time>2013-09-22T11:30:50Z</time>
      </trkpt>
      <trkpt lat="46.21455" lon="5.75227">
        <ele>605</ele>
        <time>2013-09-22T11:31:24Z</time>
      </trkpt>
      <trkpt lat="46.21263" lon="5.75241">
        <ele>584</ele>
        <time>2013-09-22T11:31:58Z</time>
      </trkpt>
      <trkpt lat="46.21202" lon="5.75325">
        <ele>598</ele>
        <time>2013-09-22T11:32:14Z</time>
      </trkpt>
      <trkpt lat="46.21138" lon="5.75349">
        <ele>602</ele>
        <time>2013-09-22T11:32:29Z</time>
      </trkpt>
      <trkpt lat="46.21" lon="5.75465">
        <ele>599</ele>
        <time>2013-09-22T11:33:02Z</time>
      </trkpt>
      <trkpt lat="46.20878" lon="5.75517">
        <ele>600</ele>
        <time>2013-09-22T11:33:37Z</time>
      </trkpt>
      <trkpt lat="46.2083" lon="5.75672">
        <ele>633</ele>
        <time>2013-09-22T11:34:55Z</time>
      </trkpt>
      <trkpt lat="46.20803" lon="5.75656">
        <ele>620</ele>
        <time>2013-09-22T11:35:07Z</time>
      </trkpt>
      <trkpt lat="46.20791" lon="5.75601">
        <ele>612</ele>
        <time>2013-09-22T11:35:22Z</time>
      </trkpt>
      <trkpt lat="46.20751" lon="5.75623">
        <ele>615</ele>
        <time>2013-09-22T11:35:37Z</time>
      </trkpt>
      <trkpt lat="46.20666" lon="5.75619">
        <ele>615</ele>
        <time>2013-09-22T11:36:02Z</time>
      </trkpt>
      <trkpt lat="46.2051" lon="5.75313">
        <ele>577</ele>
        <time>2013-09-22T11:36:26Z</time>
      </trkpt>
      <trkpt lat="46.20373" lon="5.75121">
        <ele>578</ele>
        <time>2013-09-22T11:37:23Z</time>
      </trkpt>
      <trkpt lat="46.20332" lon="5.75089">
        <ele>588</ele>
        <time>2013-09-22T11:37:39Z</time>
      </trkpt>
      <trkpt lat="46.20173" lon="5.75039">
        <ele>599</ele>
        <time>2013-09-22T11:39:37Z</time>
      </trkpt>
      <trkpt lat="46.20021" lon="5.749">
        <ele>598</ele>
        <time>2013-09-22T11:40:47Z</time>
      </trkpt>
      <trkpt lat="46.19988" lon="5.74896">
        <ele>607</ele>
        <time>2013-09-22T11:40:58Z</time>
      </trkpt>
      <trkpt lat="46.19929" lon="5.74827">
        <ele>598</ele>
        <time>2013-09-22T11:41:36Z</time>
      </trkpt>
      <trkpt lat="46.19717" lon="5.74718">
        <ele>605</ele>
        <time>2013-09-22T11:42:43Z</time>
      </trkpt>
      <trkpt lat="46.19539" lon="5.74583">
        <ele>597</ele>
        <time>2013-09-22T11:43:34Z</time>
      </trkpt>
      <trkpt lat="46.19512" lon="5.74514">
        <ele>592</ele>
        <time>2013-09-22T11:43:42Z</time>
      </trkpt>
      <trkpt lat="46.19405" lon="5.74439">
        <ele>587</ele>
        <time>2013-09-22T11:43:55Z</time>
      </trkpt>
      <trkpt lat="46.19312" lon="5.74209">
        <ele>577</ele>
        <time>2013-09-22T11:44:17Z</time>
      </trkpt>
      <trkpt lat="46.19406" lon="5.74093">
        <ele>566</ele>
        <time>2013-09-22T11:44:34Z</time>
      </trkpt>
      <trkpt lat="46.19414" lon="5.74214">
        <ele>565</ele>
        <time>2013-09-22T11:44:44Z</time>
      </trkpt>
      <trkpt lat="46.19443" lon="5.74229">
        <ele>548</ele>
        <time>2013-09-22T11:44:48Z</time>
      </trkpt>
      <trkpt lat="46.19489" lon="5.742">
        <ele>539</ele>
        <time>2013-09-22T11:44:57Z</time>
      </trkpt>
      <trkpt lat="46.19475" lon="5.7412">
        <ele>540</ele>
        <time>2013-09-22T11:45:03Z</time>
      </trkpt>
      <trkpt lat="46.19494" lon="5.74099">
        <ele>535</ele>
        <time>2013-09-22T11:45:07Z</time>
      </trkpt>
      <trkpt lat="46.19558" lon="5.74113">
        <ele>530</ele>
        <time>2013-09-22T11:45:23Z</time>
      </trkpt>
      <trkpt lat="46.196" lon="5.74147">
        <ele>546</ele>
        <time>2013-09-22T11:46:11Z</time>
      </trkpt>
      <trkpt lat="46.19583" lon="5.74176">
        <ele>536</ele>
        <time>2013-09-22T11:46:43Z</time>
      </trkpt>
      <trkpt lat="46.1959" lon="5.74244">
        <ele>539</ele>
        <time>2013-09-22T11:47:19Z</time>
      </trkpt>
      <trkpt lat="46.1958" lon="5.74244">
        <ele>534</ele>
        <time>2013-09-22T11:47:42Z</time>
      </trkpt>
      <trkpt lat="46.19576" lon="5.74191">
        <ele>534</ele>
        <time>2013-09-22T11:48:06Z</time>
      </trkpt>
      <trkpt lat="46.19658" lon="5.74017">
        <ele>547</ele>
        <time>2013-09-22T11:49:27Z</time>
      </trkpt>
      <trkpt lat="46.19774" lon="5.73908">
        <ele>566</ele>
        <time>2013-09-22T11:50:43Z</time>
      </trkpt>
      <trkpt lat="46.19789" lon="5.73979">
        <ele>587</ele>
        <time>2013-09-22T11:51:10Z</time>
      </trkpt>
      <trkpt lat="46.19717" lon="5.74036">
        <ele>578</ele>
        <time>2013-09-22T11:51:42Z</time>
      </trkpt>
      <trkpt lat="46.19707" lon="5.74121">
        <ele>590</ele>
        <time>2013-09-22T11:52:10Z</time>
      </trkpt>
      <trkpt lat="46.19693" lon="5.74138">
        <ele>587</ele>
        <time>2013-09-22T11:52:17Z</time>
      </trkpt>
      <trkpt lat="46.19696" lon="5.74165">
        <ele>587</ele>
        <time>2013-09-22T11:52:25Z</time>
      </trkpt>
      <trkpt lat="46.19682" lon="5.74184">
        <ele>580</ele>
        <time>2013-09-22T11:52:35Z</time>
      </trkpt>
      <trkpt lat="46.19702" lon="5.74117">
        <ele>589</ele>
        <time>2013-09-22T11:53:09Z</time>
      </trkpt>
      <trkpt lat="46.19782" lon="5.73983">
        <ele>586</ele>
        <time>2013-09-22T11:54:06Z</time>
      </trkpt>
      <trkpt lat="46.1992" lon="5.73945">
        <ele>605</ele>
        <time>2013-09-22T11:55:15Z</time>
      </trkpt>
      <trkpt lat="46.19983" lon="5.73963">
        <ele>614</ele>
        <time>2013-09-22T11:55:39Z</time>
      </trkpt>
      <trkpt lat="46.20187" lon="5.73891">
        <ele>630</ele>
        <time>2013-09-22T11:57:29Z</time>
      </trkpt>
      <trkpt lat="46.20264" lon="5.73776">
        <ele>634</ele>
        <time>2013-09-22T11:58:24Z</time>
      </trkpt>
      <trkpt lat="46.20303" lon="5.7375">
        <ele>642</ele>
        <time>2013-09-22T11:58:42Z</time>
      </trkpt>
      <trkpt lat="46.20411" lon="5.73617">
        <ele>641</ele>
        <time>2013-09-22T12:00:08Z</time>
      </trkpt>
      <trkpt lat="46.20448" lon="5.73592">
        <ele>655</ele>
        <time>2013-09-22T12:00:32Z</time>
      </trkpt>
      <trkpt lat="46.20479" lon="5.73647">
        <ele>665</ele>
        <time>2013-09-22T12:00:57Z</time>
      </trkpt>
      <trkpt lat="46.20461" lon="5.73712">
        <ele>680</ele>
        <time>2013-09-22T12:01:37Z</time>
      </trkpt>
      <trkpt lat="46.20431" lon="5.73749">
        <ele>679</ele>
        <time>2013-09-22T12:01:58Z</time>
      </trkpt>
      <trkpt lat="46.20421" lon="5.73788">
        <ele>692</ele>
        <time>2013-09-22T12:02:15Z</time>
      </trkpt>
      <trkpt lat="46.20385" lon="5.73814">
        <ele>678</ele>
        <time>2013-09-22T12:02:33Z</time>
      </trkpt>
      <trkpt lat="46.20327" lon="5.73966">
        <ele>676</ele>
        <time>2013-09-22T12:03:19Z</time>
      </trkpt>
      <trkpt lat="46.20325" lon="5.74009">
        <ele>685</ele>
        <time>2013-09-22T12:03:32Z</time>
      </trkpt>
      <trkpt lat="46.20186" lon="5.74052">
        <ele>673</ele>
        <time>2013-09-22T12:04:06Z</time>
      </trkpt>
      <trkpt lat="46.20106" lon="5.74118">
        <ele>677</ele>
        <time>2013-09-22T12:04:44Z</time>
      </trkpt>
      <trkpt lat="46.20105" lon="5.74159">
        <ele>679</ele>
        <time>2013-09-22T12:05:01Z</time>
      </trkpt>
      <trkpt lat="46.20583" lon="5.74261">
        <ele>717</ele>
        <time>2013-09-22T12:09:06Z</time>
      </trkpt>
      <trkpt lat="46.20612" lon="5.74249">
        <ele>720</ele>
        <time>2013-09-22T12:09:20Z</time>
      </trkpt>
      <trkpt lat="46.20732" lon="5.74091">
        <ele>728</ele>
        <time>2013-09-22T12:10:40Z</time>
      </trkpt>
      <trkpt lat="46.20807" lon="5.7411">
        <ele>740</ele>
        <time>2013-09-22T12:11:40Z</time>
      </trkpt>
      <trkpt lat="46.20871" lon="5.74081">
        <ele>749</ele>
        <time>2013-09-22T12:12:40Z</time>
      </trkpt>
      <trkpt lat="46.20896" lon="5.74102">
        <ele>754</ele>
        <time>2013-09-22T12:13:16Z</time>
      </trkpt>
      <trkpt lat="46.20946" lon="5.74066">
        <ele>758</ele>
        <time>2013-09-22T12:13:59Z</time>
      </trkpt>
      <trkpt lat="46.20974" lon="5.74068">
        <ele>760</ele>
        <time>2013-09-22T12:15:14Z</time>
      </trkpt>
      <trkpt lat="46.20965" lon="5.74062">
        <ele>759</ele>
        <time>2013-09-22T12:15:42Z</time>
      </trkpt>
      <trkpt lat="46.21035" lon="5.74082">
        <ele>764</ele>
        <time>2013-09-22T12:18:08Z</time>
      </trkpt>
      <trkpt lat="46.21165" lon="5.74006">
        <ele>771</ele>
        <time>2013-09-22T12:19:07Z</time>
      </trkpt>
      <trkpt lat="46.21234" lon="5.73918">
        <ele>777</ele>
        <time>2013-09-22T12:19:48Z</time>
      </trkpt>
      <trkpt lat="46.21306" lon="5.73918">
        <ele>782</ele>
        <time>2013-09-22T12:20:17Z</time>
      </trkpt>
      <trkpt lat="46.21417" lon="5.73957">
        <ele>787</ele>
        <time>2013-09-22T12:20:55Z</time>
      </trkpt>
      <trkpt lat="46.2148" lon="5.74014">
        <ele>788</ele>
        <time>2013-09-22T12:21:30Z</time>
      </trkpt>
      <trkpt lat="46.21607" lon="5.74074">
        <ele>791</ele>
        <time>2013-09-22T12:22:08Z</time>
      </trkpt>
      <trkpt lat="46.21746" lon="5.74045">
        <ele>789</ele>
        <time>2013-09-22T12:22:49Z</time>
      </trkpt>
      <trkpt lat="46.2181" lon="5.74056">
        <ele>787</ele>
        <time>2013-09-22T12:22:58Z</time>
      </trkpt>
      <trkpt lat="46.21873" lon="5.74024">
        <ele>788</ele>
        <time>2013-09-22T12:23:32Z</time>
      </trkpt>
      <trkpt lat="46.22167" lon="5.74025">
        <ele>789</ele>
        <time>2013-09-22T12:24:46Z</time>
      </trkpt>
      <trkpt lat="46.22245" lon="5.73988">
        <ele>796</ele>
        <time>2013-09-22T12:25:25Z</time>
      </trkpt>
      <trkpt lat="46.22441" lon="5.73988">
        <ele>798</ele>
        <time>2013-09-22T12:26:20Z</time>
      </trkpt>
      <trkpt lat="46.22522" lon="5.74049">
        <ele>796</ele>
        <time>2013-09-22T12:26:48Z</time>
      </trkpt>
      <trkpt lat="46.22624" lon="5.74047">
        <ele>808</ele>
        <time>2013-09-22T12:27:49Z</time>
      </trkpt>
      <trkpt lat="46.22757" lon="5.74184">
        <ele>811</ele>
        <time>2013-09-22T12:28:50Z</time>
      </trkpt>
      <trkpt lat="46.22812" lon="5.74206">
        <ele>811</ele>
        <time>2013-09-22T12:29:05Z</time>
      </trkpt>
      <trkpt lat="46.22895" lon="5.74149">
        <ele>817</ele>
        <time>2013-09-22T12:29:34Z</time>
      </trkpt>
      <trkpt lat="46.22937" lon="5.74068">
        <ele>822</ele>
        <time>2013-09-22T12:30:03Z</time>
      </trkpt>
      <trkpt lat="46.23092" lon="5.74224">
        <ele>827</ele>
        <time>2013-09-22T12:31:17Z</time>
      </trkpt>
      <trkpt lat="46.23203" lon="5.74248">
        <ele>833</ele>
        <time>2013-09-22T12:32:19Z</time>
      </trkpt>
      <trkpt lat="46.23237" lon="5.74281">
        <ele>832</ele>
        <time>2013-09-22T12:32:42Z</time>
      </trkpt>
      <trkpt lat="46.23329" lon="5.74304">
        <ele>836</ele>
        <time>2013-09-22T12:32:55Z</time>
      </trkpt>
      <trkpt lat="46.23423" lon="5.74386">
        <ele>841</ele>
        <time>2013-09-22T12:33:37Z</time>
      </trkpt>
      <trkpt lat="46.23581" lon="5.74461">
        <ele>848</ele>
        <time>2013-09-22T12:34:54Z</time>
      </trkpt>
      <trkpt lat="46.23675" lon="5.74556">
        <ele>860</ele>
        <time>2013-09-22T12:35:35Z</time>
      </trkpt>
      <trkpt lat="46.23708" lon="5.74631">
        <ele>860</ele>
        <time>2013-09-22T12:35:48Z</time>
      </trkpt>
      <trkpt lat="46.23768" lon="5.74705">
        <ele>856</ele>
        <time>2013-09-22T12:36:06Z</time>
      </trkpt>
      <trkpt lat="46.23803" lon="5.74722">
        <ele>857</ele>
        <time>2013-09-22T12:36:15Z</time>
      </trkpt>
      <trkpt lat="46.23857" lon="5.74925">
        <ele>852</ele>
        <time>2013-09-22T12:36:50Z</time>
      </trkpt>
      <trkpt lat="46.24116" lon="5.7489">
        <ele>864</ele>
        <time>2013-09-22T12:38:51Z</time>
      </trkpt>
      <trkpt lat="46.24179" lon="5.74934">
        <ele>868</ele>
        <time>2013-09-22T12:39:36Z</time>
      </trkpt>
      <trkpt lat="46.24344" lon="5.74983">
        <ele>883</ele>
        <time>2013-09-22T12:41:31Z</time>
      </trkpt>
      <trkpt lat="46.24486" lon="5.74968">
        <ele>896</ele>
        <time>2013-09-22T12:43:23Z</time>
      </trkpt>
      <trkpt lat="46.24544" lon="5.74839">
        <ele>902</ele>
        <time>2013-09-22T12:44:25Z</time>
      </trkpt>
      <trkpt lat="46.24621" lon="5.74801">
        <ele>909</ele>
        <time>2013-09-22T12:45:25Z</time>
      </trkpt>
      <trkpt lat="46.24679" lon="5.74803">
        <ele>917</ele>
        <time>2013-09-22T12:46:15Z</time>
      </trkpt>
      <trkpt lat="46.24741" lon="5.74763">
        <ele>922</ele>
        <time>2013-09-22T12:47:17Z</time>
      </trkpt>
      <trkpt lat="46.24788" lon="5.74669">
        <ele>929</ele>
        <time>2013-09-22T12:48:23Z</time>
      </trkpt>
      <trkpt lat="46.24843" lon="5.74633">
        <ele>936</ele>
        <time>2013-09-22T12:49:15Z</time>
      </trkpt>
      <trkpt lat="46.24863" lon="5.74572">
        <ele>936</ele>
        <time>2013-09-22T12:49:50Z</time>
      </trkpt>
      <trkpt lat="46.2485" lon="5.74432">
        <ele>941</ele>
        <time>2013-09-22T12:50:40Z</time>
      </trkpt>
      <trkpt lat="46.24865" lon="5.74373">
        <ele>945</ele>
        <time>2013-09-22T12:51:01Z</time>
      </trkpt>
      <trkpt lat="46.24913" lon="5.7433">
        <ele>948</ele>
        <time>2013-09-22T12:51:26Z</time>
      </trkpt>
      <trkpt lat="46.24995" lon="5.74352">
        <ele>948</ele>
        <time>2013-09-22T12:52:06Z</time>
      </trkpt>
      <trkpt lat="46.2505" lon="5.74299">
        <ele>945</ele>
        <time>2013-09-22T12:52:26Z</time>
      </trkpt>
      <trkpt lat="46.25109" lon="5.74166">
        <ele>935</ele>
        <time>2013-09-22T12:52:51Z</time>
      </trkpt>
      <trkpt lat="46.25079" lon="5.74094">
        <ele>934</ele>
        <time>2013-09-22T12:53:25Z</time>
      </trkpt>
      <trkpt lat="46.25066" lon="5.74011">
        <ele>931</ele>
        <time>2013-09-22T12:53:39Z</time>
      </trkpt>
      <trkpt lat="46.25114" lon="5.7381">
        <ele>920</ele>
        <time>2013-09-22T12:54:20Z</time>
      </trkpt>
      <trkpt lat="46.2516" lon="5.73754">
        <ele>918</ele>
        <time>2013-09-22T12:54:39Z</time>
      </trkpt>
      <trkpt lat="46.25177" lon="5.7377">
        <ele>919</ele>
        <time>2013-09-22T12:54:44Z</time>
      </trkpt>
      <trkpt lat="46.25135" lon="5.73947">
        <ele>927</ele>
        <time>2013-09-22T12:55:58Z</time>
      </trkpt>
      <trkpt lat="46.25154" lon="5.74013">
        <ele>928</ele>
        <time>2013-09-22T12:56:17Z</time>
      </trkpt>
      <trkpt lat="46.25151" lon="5.74054">
        <ele>929</ele>
        <time>2013-09-22T12:56:40Z</time>
      </trkpt>
      <trkpt lat="46.25218" lon="5.74101">
        <ele>934</ele>
        <time>2013-09-22T12:57:12Z</time>
      </trkpt>
      <trkpt lat="46.25334" lon="5.74283">
        <ele>940</ele>
        <time>2013-09-22T12:58:37Z</time>
      </trkpt>
      <trkpt lat="46.25485" lon="5.74336">
        <ele>947</ele>
        <time>2013-09-22T13:00:06Z</time>
      </trkpt>
      <trkpt lat="46.25536" lon="5.74421">
        <ele>952</ele>
        <time>2013-09-22T13:00:50Z</time>
      </trkpt>
      <trkpt lat="46.25609" lon="5.74426">
        <ele>954</ele>
        <time>2013-09-22T13:01:24Z</time>
      </trkpt>
      <trkpt lat="46.25632" lon="5.74452">
        <ele>955</ele>
        <time>2013-09-22T13:01:43Z</time>
      </trkpt>
      <trkpt lat="46.25666" lon="5.74418">
        <ele>955</ele>
        <time>2013-09-22T13:02:00Z</time>
      </trkpt>
      <trkpt lat="46.25696" lon="5.74431">
        <ele>956</ele>
        <time>2013-09-22T13:02:09Z</time>
      </trkpt>
      <trkpt lat="46.25716" lon="5.74471">
        <ele>956</ele>
        <time>2013-09-22T13:02:25Z</time>
      </trkpt>
      <trkpt lat="46.25771" lon="5.74704">
        <ele>963</ele>
        <time>2013-09-22T13:03:47Z</time>
      </trkpt>
      <trkpt lat="46.25751" lon="5.74849">
        <ele>962</ele>
        <time>2013-09-22T13:04:26Z</time>
      </trkpt>
      <trkpt lat="46.25772" lon="5.74943">
        <ele>962</ele>
        <time>2013-09-22T13:04:54Z</time>
      </trkpt>
      <trkpt lat="46.25766" lon="5.75003">
        <ele>961</ele>
        <time>2013-09-22T13:05:10Z</time>
      </trkpt>
      <trkpt lat="46.25735" lon="5.75051">
        <ele>956</ele>
        <time>2013-09-22T13:05:20Z</time>
      </trkpt>
      <trkpt lat="46.25738" lon="5.75084">
        <ele>956</ele>
        <time>2013-09-22T13:05:27Z</time>
      </trkpt>
      <trkpt lat="46.257" lon="5.75174">
        <ele>956</ele>
        <time>2013-09-22T13:05:49Z</time>
      </trkpt>
      <trkpt lat="46.25719" lon="5.75245">
        <ele>957</ele>
        <time>2013-09-22T13:05:59Z</time>
      </trkpt>
      <trkpt lat="46.25714" lon="5.75273">
        <ele>958</ele>
        <time>2013-09-22T13:06:07Z</time>
      </trkpt>
      <trkpt lat="46.25741" lon="5.75336">
        <ele>960</ele>
        <time>2013-09-22T13:06:29Z</time>
      </trkpt>
      <trkpt lat="46.25729" lon="5.75393">
        <ele>960</ele>
        <time>2013-09-22T13:06:43Z</time>
      </trkpt>
      <trkpt lat="46.25811" lon="5.75316">
        <ele>962</ele>
        <time>2013-09-22T13:07:25Z</time>
      </trkpt>
      <trkpt lat="46.25846" lon="5.75315">
        <ele>965</ele>
        <time>2013-09-22T13:07:39Z</time>
      </trkpt>
      <trkpt lat="46.25884" lon="5.75265">
        <ele>968</ele>
        <time>2013-09-22T13:08:01Z</time>
      </trkpt>
      <trkpt lat="46.25875" lon="5.7519">
        <ele>969</ele>
        <time>2013-09-22T13:08:32Z</time>
      </trkpt>
      <trkpt lat="46.25895" lon="5.75087">
        <ele>972</ele>
        <time>2013-09-22T13:08:57Z</time>
      </trkpt>
      <trkpt lat="46.25963" lon="5.74935">
        <ele>980</ele>
        <time>2013-09-22T13:09:35Z</time>
      </trkpt>
      <trkpt lat="46.25979" lon="5.74867">
        <ele>981</ele>
        <time>2013-09-22T13:09:55Z</time>
      </trkpt>
      <trkpt lat="46.26068" lon="5.748">
        <ele>982</ele>
        <time>2013-09-22T13:10:26Z</time>
      </trkpt>
      <trkpt lat="46.26141" lon="5.74684">
        <ele>986</ele>
        <time>2013-09-22T13:11:24Z</time>
      </trkpt>
      <trkpt lat="46.26172" lon="5.74673">
        <ele>988</ele>
        <time>2013-09-22T13:11:48Z</time>
      </trkpt>
      <trkpt lat="46.26191" lon="5.74607">
        <ele>990</ele>
        <time>2013-09-22T13:12:31Z</time>
      </trkpt>
      <trkpt lat="46.2622" lon="5.74571">
        <ele>992</ele>
        <time>2013-09-22T13:12:56Z</time>
      </trkpt>
      <trkpt lat="46.26238" lon="5.74588">
        <ele>992</ele>
        <time>2013-09-22T13:13:11Z</time>
      </trkpt>
      <trkpt lat="46.26281" lon="5.74726">
        <ele>995</ele>
        <time>2013-09-22T13:14:00Z</time>
      </trkpt>
      <trkpt lat="46.26357" lon="5.74787">
        <ele>1006</ele>
        <time>2013-09-22T13:15:26Z</time>
      </trkpt>
      <trkpt lat="46.26386" lon="5.74845">
        <ele>1011</ele>
        <time>2013-09-22T13:16:33Z</time>
      </trkpt>
      <trkpt lat="46.26415" lon="5.7485">
        <ele>1013</ele>
        <time>2013-09-22T13:17:08Z</time>
      </trkpt>
      <trkpt lat="46.26445" lon="5.7482">
        <ele>1016</ele>
        <time>2013-09-22T13:17:45Z</time>
      </trkpt>
      <trkpt lat="46.26471" lon="5.74839">
        <ele>1018</ele>
        <time>2013-09-22T13:17:58Z</time>
      </trkpt>
      <trkpt lat="46.26438" lon="5.75001">
        <ele>1013</ele>
        <time>2013-09-22T13:18:27Z</time>
      </trkpt>
      <trkpt lat="46.26402" lon="5.75064">
        <ele>1008</ele>
        <time>2013-09-22T13:18:36Z</time>
      </trkpt>
      <trkpt lat="46.26406" lon="5.75097">
        <ele>1007</ele>
        <time>2013-09-22T13:18:41Z</time>
      </trkpt>
      <trkpt lat="46.26432" lon="5.75122">
        <ele>1006</ele>
        <time>2013-09-22T13:18:49Z</time>
      </trkpt>
      <trkpt lat="46.2648" lon="5.75111">
        <ele>1007</ele>
        <time>2013-09-22T13:19:05Z</time>
      </trkpt>
      <trkpt lat="46.26552" lon="5.75055">
        <ele>1007</ele>
        <time>2013-09-22T13:19:29Z</time>
      </trkpt>
      <trkpt lat="46.26581" lon="5.75062">
        <ele>1005</ele>
        <time>2013-09-22T13:19:35Z</time>
      </trkpt>
      <trkpt lat="46.26681" lon="5.75428">
        <ele>997</ele>
        <time>2013-09-22T13:20:10Z</time>
      </trkpt>
      <trkpt lat="46.2672" lon="5.75421">
        <ele>997</ele>
        <time>2013-09-22T13:20:16Z</time>
      </trkpt>
      <trkpt lat="46.2672" lon="5.75344">
        <ele>992</ele>
        <time>2013-09-22T13:20:24Z</time>
      </trkpt>
      <trkpt lat="46.26761" lon="5.75199">
        <ele>986</ele>
        <time>2013-09-22T13:20:38Z</time>
      </trkpt>
      <trkpt lat="46.26794" lon="5.75134">
        <ele>985</ele>
        <time>2013-09-22T13:20:50Z</time>
      </trkpt>
      <trkpt lat="46.26956" lon="5.74948">
        <ele>983</ele>
        <time>2013-09-22T13:22:12Z</time>
      </trkpt>
      <trkpt lat="46.27114" lon="5.74637">
        <ele>958</ele>
        <time>2013-09-22T13:22:47Z</time>
      </trkpt>
      <trkpt lat="46.27142" lon="5.74617">
        <ele>953</ele>
        <time>2013-09-22T13:22:56Z</time>
      </trkpt>
      <trkpt lat="46.27194" lon="5.74623">
        <ele>936</ele>
        <time>2013-09-22T13:23:07Z</time>
      </trkpt>
      <trkpt lat="46.27301" lon="5.74694">
        <ele>933</ele>
        <time>2013-09-22T13:23:49Z</time>
      </trkpt>
      <trkpt lat="46.27436" lon="5.74695">
        <ele>887</ele>
        <time>2013-09-22T13:24:33Z</time>
      </trkpt>
      <trkpt lat="46.27539" lon="5.74748">
        <ele>872</ele>
        <time>2013-09-22T13:24:56Z</time>
      </trkpt>
      <trkpt lat="46.27613" lon="5.7473">
        <ele>863</ele>
        <time>2013-09-22T13:25:08Z</time>
      </trkpt>
      <trkpt lat="46.2761" lon="5.74565">
        <ele>857</ele>
        <time>2013-09-22T13:25:36Z</time>
      </trkpt>
      <trkpt lat="46.27706" lon="5.7433">
        <ele>848</ele>
        <time>2013-09-22T13:26:04Z</time>
      </trkpt>
      <trkpt lat="46.27537" lon="5.7415">
        <ele>849</ele>
        <time>2013-09-22T13:27:13Z</time>
      </trkpt>
      <trkpt lat="46.27525" lon="5.74111">
        <ele>848</ele>
        <time>2013-09-22T13:27:19Z</time>
      </trkpt>
      <trkpt lat="46.27445" lon="5.74033">
        <ele>849</ele>
        <time>2013-09-22T13:27:38Z</time>
      </trkpt>
      <trkpt lat="46.27473" lon="5.73926">
        <ele>842</ele>
        <time>2013-09-22T13:27:52Z</time>
      </trkpt>
      <trkpt lat="46.27621" lon="5.73881">
        <ele>840</ele>
        <time>2013-09-22T13:28:23Z</time>
      </trkpt>
      <trkpt lat="46.27745" lon="5.73784">
        <ele>848</ele>
        <time>2013-09-22T13:29:26Z</time>
      </trkpt>
      <trkpt lat="46.27773" lon="5.73741">
        <ele>856</ele>
        <time>2013-09-22T13:29:42Z</time>
      </trkpt>
      <trkpt lat="46.27896" lon="5.73794">
        <ele>848</ele>
        <time>2013-09-22T13:30:13Z</time>
      </trkpt>
      <trkpt lat="46.28012" lon="5.73815">
        <ele>849</ele>
        <time>2013-09-22T13:30:37Z</time>
      </trkpt>
      <trkpt lat="46.28052" lon="5.73923">
        <ele>842</ele>
        <time>2013-09-22T13:31:00Z</time>
      </trkpt>
      <trkpt lat="46.2812" lon="5.73951">
        <ele>846</ele>
        <time>2013-09-22T13:31:18Z</time>
      </trkpt>
      <trkpt lat="46.28265" lon="5.73911">
        <ele>851</ele>
        <time>2013-09-22T13:31:59Z</time>
      </trkpt>
      <trkpt lat="46.28353" lon="5.73912">
        <ele>846</ele>
        <time>2013-09-22T13:32:13Z</time>
      </trkpt>
      <trkpt lat="46.28403" lon="5.73949">
        <ele>848</ele>
        <time>2013-09-22T13:32:28Z</time>
      </trkpt>
      <trkpt lat="46.28432" lon="5.7391">
        <ele>843</ele>
        <time>2013-09-22T13:32:47Z</time>
      </trkpt>
      <trkpt lat="46.28417" lon="5.73894">
        <ele>842</ele>
        <time>2013-09-22T13:32:54Z</time>
      </trkpt>
      <trkpt lat="46.28446" lon="5.73808">
        <ele>829</ele>
        <time>2013-09-22T13:33:15Z</time>
      </trkpt>
      <trkpt lat="46.28624" lon="5.73692">
        <ele>791</ele>
        <time>2013-09-22T13:34:19Z</time>
      </trkpt>
      <trkpt lat="46.2868" lon="5.73695">
        <ele>784</ele>
        <time>2013-09-22T13:34:32Z</time>
      </trkpt>
      <trkpt lat="46.28743" lon="5.7366">
        <ele>778</ele>
        <time>2013-09-22T13:34:45Z</time>
      </trkpt>
      <trkpt lat="46.28658" lon="5.73591">
        <ele>782</ele>
        <time>2013-09-22T13:35:13Z</time>
      </trkpt>
      <trkpt lat="46.28591" lon="5.73441">
        <ele>780</ele>
        <time>2013-09-22T13:36:01Z</time>
      </trkpt>
      <trkpt lat="46.2852" lon="5.7342">
        <ele>785</ele>
        <time>2013-09-22T13:36:19Z</time>
      </trkpt>
      <trkpt lat="46.28434" lon="5.73308">
        <ele>780</ele>
        <time>2013-09-22T13:36:51Z</time>
      </trkpt>
      <trkpt lat="46.28441" lon="5.73179">
        <ele>777</ele>
        <time>2013-09-22T13:37:07Z</time>
      </trkpt>
      <trkpt lat="46.28517" lon="5.7304">
        <ele>785</ele>
        <time>2013-09-22T13:38:19Z</time>
      </trkpt>
      <trkpt lat="46.28667" lon="5.72927">
        <ele>787</ele>
        <time>2013-09-22T13:39:18Z</time>
      </trkpt>
      <trkpt lat="46.28644" lon="5.72858">
        <ele>783</ele>
        <time>2013-09-22T13:39:31Z</time>
      </trkpt>
      <trkpt lat="46.28484" lon="5.72782">
        <ele>779</ele>
        <time>2013-09-22T13:39:59Z</time>
      </trkpt>
      <trkpt lat="46.28439" lon="5.72659">
        <ele>779</ele>
        <time>2013-09-22T13:40:18Z</time>
      </trkpt>
      <trkpt lat="46.28477" lon="5.72643">
        <ele>780</ele>
        <time>2013-09-22T13:40:36Z</time>
      </trkpt>
      <trkpt lat="46.2861" lon="5.72451">
        <ele>787</ele>
        <time>2013-09-22T13:42:15Z</time>
      </trkpt>
      <trkpt lat="46.28769" lon="5.72499">
        <ele>797</ele>
        <time>2013-09-22T13:43:33Z</time>
      </trkpt>
      <trkpt lat="46.28933" lon="5.72608">
        <ele>804</ele>
        <time>2013-09-22T13:45:30Z</time>
      </trkpt>
      <trkpt lat="46.2902" lon="5.727">
        <ele>804</ele>
        <time>2013-09-22T13:46:47Z</time>
      </trkpt>
      <trkpt lat="46.29116" lon="5.72666">
        <ele>808</ele>
        <time>2013-09-22T13:47:40Z</time>
      </trkpt>
      <trkpt lat="46.29156" lon="5.72618">
        <ele>808</ele>
        <time>2013-09-22T13:47:59Z</time>
      </trkpt>
      <trkpt lat="46.29195" lon="5.72624">
        <ele>806</ele>
        <time>2013-09-22T13:48:18Z</time>
      </trkpt>
      <trkpt lat="46.29346" lon="5.72586">
        <ele>810</ele>
        <time>2013-09-22T13:49:16Z</time>
      </trkpt>
      <trkpt lat="46.29416" lon="5.72545">
        <ele>811</ele>
        <time>2013-09-22T13:49:44Z</time>
      </trkpt>
      <trkpt lat="46.29447" lon="5.72554">
        <ele>812</ele>
        <time>2013-09-22T13:49:58Z</time>
      </trkpt>
      <trkpt lat="46.2947" lon="5.7259">
        <ele>813</ele>
        <time>2013-09-22T13:50:05Z</time>
      </trkpt>
      <trkpt lat="46.29648" lon="5.7269">
        <ele>808</ele>
        <time>2013-09-22T13:50:41Z</time>
      </trkpt>
      <trkpt lat="46.29678" lon="5.72678">
        <ele>809</ele>
        <time>2013-09-22T13:50:47Z</time>
      </trkpt>
      <trkpt lat="46.29766" lon="5.72703">
        <ele>815</ele>
        <time>2013-09-22T13:51:23Z</time>
      </trkpt>
      <trkpt lat="46.29781" lon="5.72845">
        <ele>808</ele>
        <time>2013-09-22T13:51:52Z</time>
      </trkpt>
      <trkpt lat="46.29775" lon="5.72904">
        <ele>807</ele>
        <time>2013-09-22T13:51:58Z</time>
      </trkpt>
      <trkpt lat="46.29793" lon="5.73018">
        <ele>803</ele>
        <time>2013-09-22T13:52:10Z</time>
      </trkpt>
      <trkpt lat="46.29866" lon="5.73062">
        <ele>804</ele>
        <time>2013-09-22T13:52:32Z</time>
      </trkpt>
      <trkpt lat="46.29919" lon="5.73154">
        <ele>803</ele>
        <time>2013-09-22T13:52:53Z</time>
      </trkpt>
      <trkpt lat="46.29941" lon="5.73167">
        <ele>801</ele>
        <time>2013-09-22T13:52:58Z</time>
      </trkpt>
      <trkpt lat="46.29969" lon="5.73145">
        <ele>803</ele>
        <time>2013-09-22T13:53:09Z</time>
      </trkpt>
      <trkpt lat="46.30042" lon="5.72972">
        <ele>811</ele>
        <time>2013-09-22T13:54:30Z</time>
      </trkpt>
      <trkpt lat="46.30017" lon="5.72852">
        <ele>817</ele>
        <time>2013-09-22T13:55:34Z</time>
      </trkpt>
      <trkpt lat="46.30049" lon="5.72685">
        <ele>823</ele>
        <time>2013-09-22T13:56:12Z</time>
      </trkpt>
      <trkpt lat="46.3003" lon="5.72575">
        <ele>827</ele>
        <time>2013-09-22T13:56:55Z</time>
      </trkpt>
      <trkpt lat="46.30063" lon="5.72456">
        <ele>828</ele>
        <time>2013-09-22T13:57:23Z</time>
      </trkpt>
      <trkpt lat="46.30076" lon="5.72333">
        <ele>823</ele>
        <time>2013-09-22T13:57:41Z</time>
      </trkpt>
      <trkpt lat="46.30103" lon="5.72264">
        <ele>817</ele>
        <time>2013-09-22T13:57:52Z</time>
      </trkpt>
      <trkpt lat="46.30032" lon="5.72103">
        <ele>817</ele>
        <time>2013-09-22T13:58:22Z</time>
      </trkpt>
      <trkpt lat="46.30056" lon="5.72027">
        <ele>818</ele>
        <time>2013-09-22T13:58:43Z</time>
      </trkpt>
      <trkpt lat="46.30118" lon="5.71938">
        <ele>828</ele>
        <time>2013-09-22T13:59:49Z</time>
      </trkpt>
      <trkpt lat="46.30158" lon="5.71758">
        <ele>839</ele>
        <time>2013-09-22T14:01:07Z</time>
      </trkpt>
      <trkpt lat="46.30188" lon="5.7171">
        <ele>836</ele>
        <time>2013-09-22T14:01:22Z</time>
      </trkpt>
      <trkpt lat="46.30203" lon="5.71589">
        <ele>832</ele>
        <time>2013-09-22T14:01:51Z</time>
      </trkpt>
      <trkpt lat="46.30183" lon="5.71475">
        <ele>830</ele>
        <time>2013-09-22T14:02:18Z</time>
      </trkpt>
      <trkpt lat="46.30203" lon="5.71418">
        <ele>830</ele>
        <time>2013-09-22T14:02:32Z</time>
      </trkpt>
      <trkpt lat="46.30202" lon="5.71372">
        <ele>831</ele>
        <time>2013-09-22T14:02:51Z</time>
      </trkpt>
      <trkpt lat="46.30226" lon="5.71314">
        <ele>833</ele>
        <time>2013-09-22T14:03:17Z</time>
      </trkpt>
      <trkpt lat="46.30218" lon="5.71132">
        <ele>823</ele>
        <time>2013-09-22T14:03:58Z</time>
      </trkpt>
      <trkpt lat="46.3025" lon="5.70956">
        <ele>794</ele>
        <time>2013-09-22T14:05:10Z</time>
      </trkpt>
      <trkpt lat="46.30224" lon="5.70667">
        <ele>765</ele>
        <time>2013-09-22T14:06:03Z</time>
      </trkpt>
      <trkpt lat="46.30192" lon="5.70607">
        <ele>764</ele>
        <time>2013-09-22T14:06:28Z</time>
      </trkpt>
      <trkpt lat="46.30141" lon="5.70572">
        <ele>764</ele>
        <time>2013-09-22T14:06:39Z</time>
      </trkpt>
      <trkpt lat="46.30115" lon="5.70511">
        <ele>764</ele>
        <time>2013-09-22T14:06:47Z</time>
      </trkpt>
      <trkpt lat="46.30042" lon="5.70447">
        <ele>768</ele>
        <time>2013-09-22T14:07:08Z</time>
      </trkpt>
      <trkpt lat="46.3003" lon="5.70366">
        <ele>764</ele>
        <time>2013-09-22T14:07:26Z</time>
      </trkpt>
      <trkpt lat="46.30043" lon="5.70242">
        <ele>755</ele>
        <time>2013-09-22T14:07:42Z</time>
      </trkpt>
      <trkpt lat="46.29975" lon="5.70128">
        <ele>749</ele>
        <time>2013-09-22T14:07:58Z</time>
      </trkpt>
      <trkpt lat="46.29799" lon="5.70081">
        <ele>739</ele>
        <time>2013-09-22T14:08:38Z</time>
      </trkpt>
      <trkpt lat="46.2969" lon="5.70136">
        <ele>733</ele>
        <time>2013-09-22T14:08:58Z</time>
      </trkpt>
      <trkpt lat="46.29635" lon="5.70191">
        <ele>726</ele>
        <time>2013-09-22T14:09:08Z</time>
      </trkpt>
      <trkpt lat="46.29444" lon="5.70556">
        <ele>732</ele>
        <time>2013-09-22T14:09:55Z</time>
      </trkpt>
      <trkpt lat="46.29307" lon="5.70733">
        <ele>716</ele>
        <time>2013-09-22T14:10:27Z</time>
      </trkpt>
      <trkpt lat="46.29266" lon="5.70738">
        <ele>708</ele>
        <time>2013-09-22T14:10:37Z</time>
      </trkpt>
      <trkpt lat="46.29119" lon="5.70907">
        <ele>723</ele>
        <time>2013-09-22T14:12:18Z</time>
      </trkpt>
      <trkpt lat="46.2905" lon="5.70958">
        <ele>724</ele>
        <time>2013-09-22T14:12:30Z</time>
      </trkpt>
      <trkpt lat="46.28995" lon="5.71068">
        <ele>724</ele>
        <time>2013-09-22T14:12:42Z</time>
      </trkpt>
      <trkpt lat="46.28994" lon="5.71255">
        <ele>728</ele>
        <time>2013-09-22T14:12:58Z</time>
      </trkpt>
      <trkpt lat="46.28972" lon="5.71265">
        <ele>726</ele>
        <time>2013-09-22T14:13:02Z</time>
      </trkpt>
      <trkpt lat="46.28926" lon="5.71228">
        <ele>727</ele>
        <time>2013-09-22T14:13:17Z</time>
      </trkpt>
      <trkpt lat="46.28843" lon="5.71113">
        <ele>732</ele>
        <time>2013-09-22T14:14:20Z</time>
      </trkpt>
      <trkpt lat="46.28801" lon="5.70905">
        <ele>736</ele>
        <time>2013-09-22T14:15:43Z</time>
      </trkpt>
      <trkpt lat="46.28614" lon="5.70732">
        <ele>747</ele>
        <time>2013-09-22T14:17:57Z</time>
      </trkpt>
      <trkpt lat="46.28427" lon="5.70605">
        <ele>744</ele>
        <time>2013-09-22T14:19:01Z</time>
      </trkpt>
      <trkpt lat="46.28439" lon="5.70541">
        <ele>753</ele>
        <time>2013-09-22T14:19:35Z</time>
      </trkpt>
      <trkpt lat="46.28404" lon="5.70452">
        <ele>760</ele>
        <time>2013-09-22T14:20:55Z</time>
      </trkpt>
      <trkpt lat="46.28401" lon="5.70394">
        <ele>774</ele>
        <time>2013-09-22T14:21:38Z</time>
      </trkpt>
      <trkpt lat="46.28418" lon="5.70358">
        <ele>783</ele>
        <time>2013-09-22T14:22:07Z</time>
      </trkpt>
      <trkpt lat="46.28422" lon="5.70268">
        <ele>781</ele>
        <time>2013-09-22T14:23:01Z</time>
      </trkpt>
      <trkpt lat="46.28512" lon="5.7017">
        <ele>766</ele>
        <time>2013-09-22T14:23:31Z</time>
      </trkpt>
      <trkpt lat="46.28558" lon="5.70086">
        <ele>758</ele>
        <time>2013-09-22T14:23:59Z</time>
      </trkpt>
      <trkpt lat="46.28655" lon="5.69807">
        <ele>744</ele>
        <time>2013-09-22T14:25:35Z</time>
      </trkpt>
      <trkpt lat="46.28714" lon="5.69725">
        <ele>745</ele>
        <time>2013-09-22T14:26:01Z</time>
      </trkpt>
      <trkpt lat="46.28691" lon="5.69593">
        <ele>729</ele>
        <time>2013-09-22T14:26:34Z</time>
      </trkpt>
      <trkpt lat="46.2862" lon="5.69391">
        <ele>681</ele>
        <time>2013-09-22T14:27:34Z</time>
      </trkpt>
      <trkpt lat="46.28654" lon="5.69194">
        <ele>654</ele>
        <time>2013-09-22T14:28:51Z</time>
      </trkpt>
      <trkpt lat="46.28642" lon="5.69121">
        <ele>640</ele>
        <time>2013-09-22T14:29:14Z</time>
      </trkpt>
      <trkpt lat="46.28651" lon="5.69018">
        <ele>627</ele>
        <time>2013-09-22T14:29:39Z</time>
      </trkpt>
      <trkpt lat="46.28626" lon="5.68955">
        <ele>623</ele>
        <time>2013-09-22T14:30:06Z</time>
      </trkpt>
      <trkpt lat="46.28681" lon="5.68626">
        <ele>588</ele>
        <time>2013-09-22T14:30:46Z</time>
      </trkpt>
      <trkpt lat="46.28671" lon="5.68587">
        <ele>584</ele>
        <time>2013-09-22T14:30:52Z</time>
      </trkpt>
      <trkpt lat="46.28624" lon="5.68567">
        <ele>592</ele>
        <time>2013-09-22T14:31:09Z</time>
      </trkpt>
      <trkpt lat="46.28604" lon="5.68537">
        <ele>592</ele>
        <time>2013-09-22T14:31:22Z</time>
      </trkpt>
      <trkpt lat="46.28579" lon="5.68426">
        <ele>588</ele>
        <time>2013-09-22T14:31:58Z</time>
      </trkpt>
      <trkpt lat="46.28635" lon="5.68291">
        <ele>567</ele>
        <time>2013-09-22T14:32:35Z</time>
      </trkpt>
      <trkpt lat="46.28634" lon="5.68149">
        <ele>555</ele>
        <time>2013-09-22T14:33:07Z</time>
      </trkpt>
      <trkpt lat="46.28519" lon="5.67977">
        <ele>546</ele>
        <time>2013-09-22T14:33:46Z</time>
      </trkpt>
      <trkpt lat="46.28482" lon="5.67959">
        <ele>547</ele>
        <time>2013-09-22T14:33:57Z</time>
      </trkpt>
      <trkpt lat="46.28318" lon="5.67967">
        <ele>547</ele>
        <time>2013-09-22T14:34:33Z</time>
      </trkpt>
      <trkpt lat="46.28292" lon="5.67984">
        <ele>548</ele>
        <time>2013-09-22T14:34:50Z</time>
      </trkpt>
      <trkpt lat="46.28254" lon="5.6805">
        <ele>558</ele>
        <time>2013-09-22T14:35:24Z</time>
      </trkpt>
      <trkpt lat="46.28174" lon="5.68049">
        <ele>560</ele>
        <time>2013-09-22T14:36:02Z</time>
      </trkpt>
      <trkpt lat="46.28058" lon="5.68093">
        <ele>572</ele>
        <time>2013-09-22T14:37:06Z</time>
      </trkpt>
      <trkpt lat="46.27964" lon="5.68154">
        <ele>577</ele>
        <time>2013-09-22T14:38:02Z</time>
      </trkpt>
      <trkpt lat="46.27924" lon="5.68136">
        <ele>577</ele>
        <time>2013-09-22T14:38:14Z</time>
      </trkpt>
      <trkpt lat="46.27932" lon="5.68111">
        <ele>574</ele>
        <time>2013-09-22T14:38:22Z</time>
      </trkpt>
      <trkpt lat="46.27981" lon="5.6809">
        <ele>573</ele>
        <time>2013-09-22T14:38:37Z</time>
      </trkpt>
      <trkpt lat="46.2797" lon="5.6807">
        <ele>566</ele>
        <time>2013-09-22T14:38:44Z</time>
      </trkpt>
      <trkpt lat="46.27986" lon="5.68061">
        <ele>566</ele>
        <time>2013-09-22T14:39:01Z</time>
      </trkpt>
      <trkpt lat="46.27952" lon="5.68032">
        <ele>564</ele>
        <time>2013-09-22T14:39:13Z</time>
      </trkpt>
      <trkpt lat="46.27957" lon="5.68018">
        <ele>563</ele>
        <time>2013-09-22T14:39:16Z</time>
      </trkpt>
      <trkpt lat="46.27985" lon="5.68033">
        <ele>564</ele>
        <time>2013-09-22T14:39:22Z</time>
      </trkpt>
      <trkpt lat="46.27991" lon="5.6802">
        <ele>563</ele>
        <time>2013-09-22T14:39:25Z</time>
      </trkpt>
      <trkpt lat="46.27963" lon="5.67999">
        <ele>557</ele>
        <time>2013-09-22T14:39:31Z</time>
      </trkpt>
      <trkpt lat="46.27967" lon="5.67983">
        <ele>557</ele>
        <time>2013-09-22T14:39:34Z</time>
      </trkpt>
      <trkpt lat="46.28007" lon="5.67969">
        <ele>556</ele>
        <time>2013-09-22T14:39:43Z</time>
      </trkpt>
      <trkpt lat="46.28033" lon="5.67989">
        <ele>556</ele>
        <time>2013-09-22T14:39:53Z</time>
      </trkpt>
      <trkpt lat="46.28046" lon="5.67921">
        <ele>553</ele>
        <time>2013-09-22T14:40:07Z</time>
      </trkpt>
      <trkpt lat="46.27983" lon="5.67888">
        <ele>552</ele>
        <time>2013-09-22T14:40:26Z</time>
      </trkpt>
      <trkpt lat="46.27982" lon="5.67901">
        <ele>552</ele>
        <time>2013-09-22T14:40:33Z</time>
      </trkpt>
    </trkseg>
  </trk>
</gpx>